M I D A S
Marine Information and Data Acquisition System
Tripno 581 of the Zeeleeuw from 2003-09-02 06:28:39 to 2003-09-02 14:26:07
Back to CruiseResearch ActivitiesStationsMapUnderway DataData graphs

EquipmentUnitsComment
TimeDGPSUTC
LatitudeDGPSDM.mWGS84
LongitudeDGPSDM.mWGS84
TemperatureSBE03/SBE38deg celciusITS90
ConductivitySBE21S/mITS90
SalinitySBE21 Practical Salinity Units
ChlorophylAChelsea fluorimeterg/lCalibrated in Aceton
Missing or incorrect values are displayed as -999
Sea surface data collected by the RV Zeeleeuw from 2003-09-02 06:28:39 to 2003-09-02 14:26:07
                                                                                    Next 1000 lines
Time Latitude Longitude Temperature Conductivity Salinity ChlorophylA
2003-09-02 06:28:47 51°13.83 2°55.64 18.630979 3.742895 27.392819 5.320153
2003-09-02 06:28:51 51°13.83 2°55.63 18.592634 3.739101 27.362473 5.353862
2003-09-02 06:28:57 51°13.84 2°55.62 18.592634 3.739101 27.362473 5.353862
2003-09-02 06:29:01 51°13.85 2°55.62 18.614637 3.741209 27.384343 5.387571
2003-09-02 06:29:07 51°13.86 2°55.61 18.568931 3.733831 27.326781 5.421281
2003-09-02 06:29:11 51°13.87 2°55.6 18.466263 3.739944 27.378816 5.320153
2003-09-02 06:29:17 51°13.88 2°55.6 18.49765 3.726876 27.278329 5.320153
2003-09-02 06:29:21 51°13.88 2°55.59 18.568022 3.715073 27.181054 5.353862
2003-09-02 06:29:27 51°13.89 2°55.58 18.568022 3.715073 27.181054 5.353862
2003-09-02 06:29:33 51°13.9 2°55.57 18.622066 3.694417 27.013421 5.286443
2003-09-02 06:29:37 51°13.91 2°55.57 18.526667 3.687041 26.964344 5.286443
2003-09-02 06:29:41 51°13.92 2°55.56 18.52146 3.667757 26.810736 5.45499
2003-09-02 06:29:47 51°13.93 2°55.56 18.595978 3.67134 26.850971 5.353862
2003-09-02 06:29:51 51°13.94 2°55.55 18.660766 3.670075 26.835121 5.320153
2003-09-02 06:29:57 51°13.95 2°55.54 18.660766 3.670075 26.835121 5.320153
2003-09-02 06:30:01 51°13.96 2°55.54 18.482806 3.682088 26.941462 5.387571
2003-09-02 06:30:07 51°13.97 2°55.53 18.504016 3.697053 27.070955 5.320153
2003-09-02 06:30:11 51°13.98 2°55.52 18.538568 3.708539 27.160523 5.320153
2003-09-02 06:30:17 51°13.99 2°55.51 18.751779 3.702638 27.110213 5.320153
2003-09-02 06:30:21 51°14 2°55.51 18.666128 3.72224 27.273789 5.320153
2003-09-02 06:30:27 51°14.01 2°55.5 18.666128 3.72224 27.273789 5.320153
2003-09-02 06:30:31 51°14.02 2°55.49 18.51464 3.723188 27.280554 5.387571
2003-09-02 06:30:37 51°14.03 2°55.49 18.649422 3.718446 27.251461 5.353862
2003-09-02 06:30:41 51°14.04 2°55.48 18.539684 3.720343 27.263574 5.252734
2003-09-02 06:30:47 51°14.05 2°55.47 18.591437 3.713598 27.210619 5.252734
2003-09-02 06:30:51 51°14.06 2°55.47 18.577645 3.702638 27.121991 5.117896
2003-09-02 06:30:57 51°14.07 2°55.46 18.577645 3.702638 27.121991 5.117896
2003-09-02 06:31:01 51°14.08 2°55.45 18.711605 3.693048 27.047352 5.084187
2003-09-02 06:31:07 51°14.09 2°55.44 18.880759 3.678927 26.931705 5.050477
2003-09-02 06:31:11 51°14.1 2°55.44 18.47044 3.670181 26.867226 4.88193
2003-09-02 06:31:17 51°14.11 2°55.43 18.572442 3.661118 26.786669 4.780802
2003-09-02 06:31:21 51°14.12 2°55.42 18.608693 3.655428 26.745611 4.713383
2003-09-02 06:31:27 51°14.13 2°55.41 18.608693 3.655428 26.745611 4.713383
2003-09-02 06:31:31 51°14.14 2°55.4 18.470399 3.655955 26.757327 4.780802
2003-09-02 06:31:37 51°14.15 2°55.39 18.56984 3.656904 26.771542 4.747093
2003-09-02 06:31:41 51°14.16 2°55.39 18.569592 3.666598 26.84887 4.848221
2003-09-02 06:31:47 51°14.17 2°55.38 18.558316 3.676399 26.931762 4.848221
2003-09-02 06:31:51 51°14.18 2°55.37 18.522741 3.686726 27.018521 4.88193
2003-09-02 06:31:57 51°14.19 2°55.36 18.522741 3.686726 27.018521 4.88193
2003-09-02 06:32:01 51°14.2 2°55.35 18.553441 3.701901 27.140995 4.848221
2003-09-02 06:32:07 51°14.21 2°55.33 18.474907 3.710332 27.215275 4.848221
2003-09-02 06:32:11 51°14.22 2°55.32 18.403198 3.713072 27.239001 4.747093
2003-09-02 06:32:17 51°14.23 2°55.31 18.603904 3.712229 27.230242 4.713383
2003-09-02 06:32:21 51°14.23 2°55.29 18.464071 3.705063 27.174754 4.713383
2003-09-02 06:32:27 51°14.25 2°55.28 18.464071 3.705063 27.174754 4.713383
2003-09-02 06:32:31 51°14.25 2°55.27 18.595276 3.701585 27.148815 4.679674
2003-09-02 06:32:37 51°14.26 2°55.25 18.395373 3.693892 27.089518 4.679674
2003-09-02 06:32:41 51°14.27 2°55.23 18.519145 3.682511 27.002104 4.612255
2003-09-02 06:32:47 51°14.28 2°55.21 18.517203 3.672711 26.926618 4.679674
2003-09-02 06:32:51 51°14.29 2°55.2 18.478795 3.663965 26.86626 4.645965
2003-09-02 06:32:57 51°14.3 2°55.18 18.478795 3.663965 26.86626 4.645965
2003-09-02 06:33:01 51°14.31 2°55.16 18.413175 3.659644 26.825049 4.578546
2003-09-02 06:33:07 51°14.32 2°55.14 18.555548 3.655745 26.801757 4.612255
2003-09-02 06:33:11 51°14.33 2°55.13 18.522286 3.64858 26.743968 4.544836
2003-09-02 06:33:17 51°14.34 2°55.1 18.38498 3.651109 26.759398 4.578546
2003-09-02 06:33:21 51°14.35 2°55.09 18.341609 3.653322 26.786251 4.578546
2003-09-02 06:33:27 51°14.36 2°55.07 18.341609 3.653322 26.786251 4.578546
2003-09-02 06:33:31 51°14.36 2°55.05 18.53894 3.662279 26.856758 4.578546
2003-09-02 06:33:37 51°14.38 2°55.03 18.407338 3.674397 26.96005 4.578546
2003-09-02 06:33:41 51°14.39 2°55.02 18.541088 3.683565 27.031857 4.645965
2003-09-02 06:33:47 51°14.4 2°55 18.378147 3.694314 27.11986 4.645965
2003-09-02 06:33:51 51°14.41 2°54.98 18.494136 3.707065 27.224696 4.713383
2003-09-02 06:33:57 51°14.42 2°54.97 18.494136 3.707065 27.224696 4.713383
2003-09-02 06:34:01 51°14.43 2°54.95 18.41363 3.729091 27.403797 4.814512
2003-09-02 06:34:07 51°14.45 2°54.94 18.30157 3.757863 27.641502 5.016768
2003-09-02 06:34:11 51°14.46 2°54.93 18.533279 3.773672 27.771623 5.185315
2003-09-02 06:34:17 51°14.48 2°54.91 18.595772 3.803921 28.018002 5.320153
2003-09-02 06:34:21 51°14.49 2°54.91 18.567899 3.826055 28.197218 5.556118
2003-09-02 06:34:27 51°14.51 2°54.89 18.567899 3.826055 28.197218 5.556118
2003-09-02 06:34:31 51°14.52 2°54.88 18.503396 3.858415 28.459391 5.657247
2003-09-02 06:34:37 51°14.54 2°54.87 18.321386 3.885716 28.686338 5.724665
2003-09-02 06:34:41 51°14.55 2°54.86 18.451081 3.914495 28.922687 5.792084
2003-09-02 06:34:47 51°14.57 2°54.85 18.541336 3.941271 29.15301 5.825794
2003-09-02 06:34:51 51°14.58 2°54.84 18.442807 3.960247 29.310758 5.926922
2003-09-02 06:34:57 51°14.6 2°54.83 18.442807 3.960247 29.310758 5.926922
2003-09-02 06:35:01 51°14.61 2°54.83 18.618145 3.979435 29.467295 5.960631
2003-09-02 06:35:07 51°14.63 2°54.82 18.489629 3.992086 29.570553 5.825794
2003-09-02 06:35:11 51°14.65 2°54.81 18.39115 4.009799 29.716126 5.893212
2003-09-02 06:35:17 51°14.67 2°54.81 18.543733 4.033837 29.910903 5.893212
2003-09-02 06:35:21 51°14.68 2°54.8 18.468951 4.04533 30.00792 5.825794
2003-09-02 06:35:27 51°14.7 2°54.79 18.468951 4.04533 30.00792 5.825794
2003-09-02 06:35:31 51°14.71 2°54.79 18.567238 4.061884 30.140518 5.758375
2003-09-02 06:35:37 51°14.73 2°54.78 18.586234 4.07538 30.254221 5.690956
2003-09-02 06:35:41 51°14.74 2°54.78 18.579751 4.085186 30.331635 5.623537
2003-09-02 06:35:47 51°14.76 2°54.77 18.564099 4.098683 30.438009 5.387571
2003-09-02 06:35:51 51°14.78 2°54.76 18.858059 4.11218 30.537476 5.084187
2003-09-02 06:35:57 51°14.8 2°54.75 18.858059 4.11218 30.537476 5.084187
2003-09-02 06:36:01 51°14.81 2°54.75 18.675737 4.123146 30.623989 4.747093
2003-09-02 06:36:07 51°14.83 2°54.74 18.655074 4.147505 30.806406 4.578546
2003-09-02 06:36:11 51°14.85 2°54.73 18.570294 4.168595 30.962248 4.409999
2003-09-02 06:36:17 51°14.87 2°54.73 18.81848 4.188632 31.11798 4.174033
2003-09-02 06:36:21 51°14.88 2°54.72 18.700145 4.210567 31.284031 4.005486
2003-09-02 06:36:27 51°14.9 2°54.72 18.700145 4.210567 31.284031 4.005486
2003-09-02 06:36:31 51°14.92 2°54.71 18.711357 4.224171 31.375532 3.80323
2003-09-02 06:36:37 51°14.94 2°54.71 18.753509 4.238303 31.48174 3.702101
2003-09-02 06:36:41 51°14.95 2°54.7 18.828192 4.252541 31.59321 3.668392
2003-09-02 06:36:47 51°14.97 2°54.7 18.801893 4.260345 31.636484 3.533554
2003-09-02 06:36:51 51°14.99 2°54.7 18.673386 4.268044 31.687651 3.466136
2003-09-02 06:36:57 51°15.01 2°54.7 18.673386 4.268044 31.687651 3.466136
2003-09-02 06:37:01 51°15.02 2°54.7 18.614719 4.277958 31.764323 3.263879
2003-09-02 06:37:07 51°15.05 2°54.71 18.820826 4.289876 31.846559 3.19646
2003-09-02 06:37:11 51°15.06 2°54.71 18.762983 4.295571 31.88437 2.960494
2003-09-02 06:37:17 51°15.08 2°54.72 18.799423 4.305274 31.958717 2.825657
2003-09-02 06:37:21 51°15.1 2°54.73 18.840124 4.306013 31.965393 2.758238
2003-09-02 06:37:27 51°15.12 2°54.73 18.840124 4.306013 31.965393 2.758238
2003-09-02 06:37:31 51°15.13 2°54.74 18.744447 4.309493 31.980936 2.6234
2003-09-02 06:37:37 51°15.15 2°54.75 18.782461 4.312974 32.003128 2.555982
2003-09-02 06:37:41 51°15.17 2°54.76 18.690498 4.318458 32.044145 2.421144
2003-09-02 06:37:47 51°15.19 2°54.77 18.894778 4.323837 32.083729 2.286306
2003-09-02 06:37:51 51°15.2 2°54.78 18.804486 4.330166 32.132294 2.252597
2003-09-02 06:37:57 51°15.22 2°54.8 18.804486 4.330166 32.132294 2.252597
2003-09-02 06:38:01 51°15.23 2°54.81 18.77332 4.343139 32.232608 2.08405
2003-09-02 06:38:07 51°15.25 2°54.83 18.741439 4.34546 32.244588 2.016631
2003-09-02 06:38:11 51°15.26 2°54.84 18.872083 4.345565 32.245462 2.016631
2003-09-02 06:38:17 51°15.28 2°54.86 18.808314 4.346198 32.247358 1.915503
2003-09-02 06:38:21 51°15.29 2°54.88 18.808891 4.351894 32.290109 1.780665
2003-09-02 06:38:27 51°15.31 2°54.9 18.808891 4.351894 32.290109 1.780665
2003-09-02 06:38:31 51°15.32 2°54.91 18.875989 4.354742 32.307568 1.679537
2003-09-02 06:38:37 51°15.34 2°54.93 18.741604 4.358855 32.332717 1.612118
2003-09-02 06:38:41 51°15.35 2°54.95 18.843127 4.364446 32.380183 1.5447
2003-09-02 06:38:47 51°15.37 2°54.97 18.875331 4.367821 32.411537 1.5447
2003-09-02 06:38:51 51°15.38 2°54.98 18.742346 4.370247 32.429973 1.578409
2003-09-02 06:38:57 51°15.4 2°55 18.742346 4.370247 32.429973 1.578409
2003-09-02 06:39:01 51°15.41 2°55.01 18.81136 4.370353 32.425235 1.51099
2003-09-02 06:39:07 51°15.42 2°55.03 18.881663 4.373517 32.451476 1.5447
2003-09-02 06:39:11 51°15.44 2°55.05 18.814941 4.373095 32.450785 1.5447
2003-09-02 06:39:17 51°15.45 2°55.07 18.915535 4.374994 32.463723 1.51099
2003-09-02 06:39:21 51°15.46 2°55.09 18.849256 4.375521 32.466973 1.5447
2003-09-02 06:39:27 51°15.48 2°55.11 18.849256 4.375521 32.466973 1.5447
2003-09-02 06:39:31 51°15.49 2°55.13 18.817657 4.375205 32.465473 1.578409
2003-09-02 06:39:37 51°15.5 2°55.15 18.853329 4.372674 32.451218 1.612118
2003-09-02 06:39:41 51°15.51 2°55.17 18.749802 4.373412 32.44667 1.645828
2003-09-02 06:39:47 51°15.53 2°55.2 18.882732 4.374045 32.453042 1.645828
2003-09-02 06:39:51 51°15.54 2°55.22 18.741233 4.373201 32.442676 1.645828
2003-09-02 06:39:57 51°15.55 2°55.24 18.741233 4.373201 32.442676 1.645828
2003-09-02 06:40:01 51°15.56 2°55.26 18.640593 4.373517 32.44923 1.612118
2003-09-02 06:40:07 51°15.58 2°55.29 18.842304 4.371935 32.433864 1.645828
2003-09-02 06:40:11 51°15.59 2°55.3 18.80391 4.371619 32.43068 1.645828
2003-09-02 06:40:17 51°15.6 2°55.33 18.703361 4.373517 32.443615 1.612118
2003-09-02 06:40:21 51°15.61 2°55.35 18.697177 4.370986 32.425993 1.645828
2003-09-02 06:40:27 51°15.63 2°55.37 18.697177 4.370986 32.425993 1.645828
2003-09-02 06:40:31 51°15.64 2°55.39 18.766401 4.37299 32.439242 1.645828
2003-09-02 06:40:37 51°15.65 2°55.42 18.833335 4.368982 32.417792 1.645828
2003-09-02 06:40:41 51°15.66 2°55.43 18.795965 4.371197 32.430548 1.612118
2003-09-02 06:40:47 51°15.68 2°55.46 18.830866 4.374783 32.461412 1.612118
2003-09-02 06:40:51 51°15.69 2°55.48 18.865914 4.372041 32.445969 1.578409
2003-09-02 06:40:57 51°15.7 2°55.5 18.865914 4.372041 32.445969 1.578409
2003-09-02 06:41:01 51°15.71 2°55.52 18.801523 4.37742 32.484969 1.51099
2003-09-02 06:41:07 51°15.73 2°55.55 18.666045 4.373306 32.453097 1.5447
2003-09-02 06:41:11 51°15.74 2°55.56 18.832512 4.373517 32.457094 1.578409
2003-09-02 06:41:17 51°15.75 2°55.59 18.898437 4.37626 32.478718 1.443571
2003-09-02 06:41:21 51°15.76 2°55.6 18.732334 4.376471 32.482717 1.477281
2003-09-02 06:41:27 51°15.78 2°55.63 18.732334 4.376471 32.482717 1.477281
2003-09-02 06:41:31 51°15.79 2°55.65 18.665138 4.374994 32.471591 1.443571
2003-09-02 06:41:37 51°15.8 2°55.67 18.737978 4.3751 32.468532 1.477281
2003-09-02 06:41:41 51°15.81 2°55.69 18.735424 4.376365 32.482405 1.477281
2003-09-02 06:41:47 51°15.82 2°55.72 18.700681 4.383116 32.538979 1.477281
2003-09-02 06:41:51 51°15.83 2°55.74 18.804898 4.377104 32.48853 1.5447
2003-09-02 06:41:57 51°15.85 2°55.76 18.804898 4.377104 32.48853 1.5447
2003-09-02 06:42:01 51°15.85 2°55.78 18.763807 4.376893 32.490718 1.5447
2003-09-02 06:42:07 51°15.87 2°55.81 18.93341 4.377104 32.485718 1.612118
2003-09-02 06:42:11 51°15.88 2°55.83 18.731056 4.375733 32.476592 1.645828
2003-09-02 06:42:17 51°15.89 2°55.86 18.835886 4.376576 32.48528 1.679537
2003-09-02 06:42:21 51°15.9 2°55.88 18.732416 4.375416 32.470594 1.713247
2003-09-02 06:42:27 51°15.91 2°55.9 18.732416 4.375416 32.470594 1.713247
2003-09-02 06:42:31 51°15.92 2°55.92 18.767513 4.374678 32.471777 1.746956
2003-09-02 06:42:37 51°15.93 2°55.95 18.835228 4.371513 32.440471 1.780665
2003-09-02 06:42:41 51°15.94 2°55.97 18.90004 4.369615 32.42697 1.814375
2003-09-02 06:42:47 51°15.95 2°56 18.628462 4.369509 32.426095 1.881794
2003-09-02 06:42:51 51°15.96 2°56.02 18.730315 4.368138 32.413039 1.949212
2003-09-02 06:42:57 51°15.97 2°56.05 18.730315 4.368138 32.413039 1.949212
2003-09-02 06:43:01 51°15.98 2°56.07 18.799382 4.367505 32.409474 1.915503
2003-09-02 06:43:07 51°15.99 2°56.1 18.697796 4.366028 32.394984 2.08405
2003-09-02 06:43:11 51°16 2°56.12 18.696353 4.365606 32.390364 2.08405
2003-09-02 06:43:17 51°16.02 2°56.15 18.796748 4.363497 32.379598 2.117759
2003-09-02 06:43:21 51°16.02 2°56.17 18.86176 4.339025 32.174532 2.218888
2003-09-02 06:43:27 51°16.04 2°56.19 18.86176 4.339025 32.174532 2.218888
2003-09-02 06:43:31 51°16.05 2°56.21 18.725947 4.362336 32.364933 2.218888
2003-09-02 06:43:37 51°16.06 2°56.24 18.758905 4.360438 32.349192 2.218888
2003-09-02 06:43:41 51°16.07 2°56.26 18.762159 4.345776 32.226001 2.252597
2003-09-02 06:43:47 51°16.08 2°56.29 18.829467 4.350839 32.269629 2.353725
2003-09-02 06:43:51 51°16.09 2°56.31 18.790861 4.358539 32.333452 2.353725
2003-09-02 06:43:57 51°16.1 2°56.34 18.790861 4.358539 32.333452 2.353725
2003-09-02 06:44:01 51°16.11 2°56.36 18.855344 4.357695 32.327016 2.387435
2003-09-02 06:44:07 51°16.12 2°56.39 18.789872 4.355797 32.316872 2.387435
2003-09-02 06:44:11 51°16.13 2°56.41 18.758246 4.355691 32.312641 2.353725
2003-09-02 06:44:17 51°16.14 2°56.44 18.78662 4.354425 32.306063 2.353725
2003-09-02 06:44:21 51°16.15 2°56.46 18.856167 4.354742 32.304771 2.353725
2003-09-02 06:44:27 51°16.17 2°56.49 18.856167 4.354742 32.304771 2.353725
2003-09-02 06:44:31 51°16.17 2°56.51 18.753262 4.356219 32.319251 2.353725
2003-09-02 06:44:37 51°16.19 2°56.54 18.747948 4.353265 32.295885 2.320016
2003-09-02 06:44:41 51°16.19 2°56.56 18.776656 4.352421 32.290008 2.320016
2003-09-02 06:44:47 51°16.21 2°56.59 18.709338 4.351894 32.286754 2.286306
2003-09-02 06:44:51 51°16.22 2°56.61 18.702495 4.352105 32.286267 2.252597
2003-09-02 06:44:57 51°16.23 2°56.64 18.702495 4.352105 32.286267 2.252597
2003-09-02 06:45:01 51°16.24 2°56.66 18.767596 4.352738 32.295427 2.218888
2003-09-02 06:45:07 51°16.25 2°56.69 18.700352 4.353265 32.295885 2.151469
2003-09-02 06:45:11 51°16.26 2°56.71 18.665303 4.35316 32.297807 2.08405
2003-09-02 06:45:17 51°16.27 2°56.74 18.795924 4.355058 32.315786 2.016631
2003-09-02 06:45:21 51°16.28 2°56.76 18.690457 4.353371 32.303471 1.915503
2003-09-02 06:45:27 51°16.29 2°56.79 18.690457 4.353371 32.303471 1.915503
2003-09-02 06:45:31 51°16.3 2°56.81 18.688684 4.350417 32.280661 1.814375
2003-09-02 06:45:37 51°16.31 2°56.84 18.689055 4.355059 32.323623 1.814375
2003-09-02 06:45:41 51°16.32 2°56.86 18.853904 4.352105 32.302487 1.780665
2003-09-02 06:45:47 51°16.33 2°56.89 18.924452 4.356008 32.335417 1.679537
2003-09-02 06:45:51 51°16.34 2°56.91 18.653547 4.354742 32.329959 1.713247
2003-09-02 06:45:57 51°16.35 2°56.94 18.653547 4.354742 32.329959 1.713247
2003-09-02 06:46:01 51°16.36 2°56.96 18.819303 4.355692 32.335033 1.713247
2003-09-02 06:46:07 51°16.37 2°56.99 18.821649 4.356535 32.347078 1.679537
2003-09-02 06:46:11 51°16.38 2°57.01 18.751903 4.35432 32.33038 1.713247
2003-09-02 06:46:17 51°16.4 2°57.04 18.722114 4.356641 32.350756 1.679537
2003-09-02 06:46:21 51°16.4 2°57.06 18.716427 4.358329 32.364761 1.679537
2003-09-02 06:46:27 51°16.42 2°57.09 18.716427 4.358329 32.364761 1.679537
2003-09-02 06:46:31 51°16.43 2°57.11 18.68419 4.354953 32.337873 1.713247
2003-09-02 06:46:37 51°16.44 2°57.14 18.821484 4.355481 32.341689 1.713247
2003-09-02 06:46:41 51°16.45 2°57.16 18.649257 4.352949 32.329649 1.679537
2003-09-02 06:46:47 51°16.46 2°57.19 18.678582 4.354531 32.334933 1.713247
2003-09-02 06:46:51 51°16.47 2°57.21 18.680644 4.35432 32.330941 1.645828
2003-09-02 06:46:57 51°16.48 2°57.24 18.680644 4.35432 32.330941 1.645828
2003-09-02 06:47:01 51°16.49 2°57.26 18.748319 4.354004 32.331677 1.713247
2003-09-02 06:47:07 51°16.5 2°57.29 18.582022 4.353688 32.330733 1.746956
2003-09-02 06:47:11 51°16.51 2°57.31 18.686375 4.353582 32.326495 1.713247
2003-09-02 06:47:17 51°16.52 2°57.34 18.853534 4.353055 32.322119 1.746956
2003-09-02 06:47:21 51°16.53 2°57.36 18.752686 4.352844 32.323731 1.746956
2003-09-02 06:47:27 51°16.54 2°57.39 18.752686 4.352844 32.323731 1.746956
2003-09-02 06:47:31 51°16.55 2°57.41 18.686829 4.35432 32.334863 1.713247
2003-09-02 06:47:37 51°16.56 2°57.44 18.82239 4.352527 32.321665 1.746956
2003-09-02 06:47:41 51°16.57 2°57.46 18.652722 4.351473 32.311792 1.814375
2003-09-02 06:47:47 51°16.58 2°57.49 18.720589 4.350734 32.308466 1.814375
2003-09-02 06:47:51 51°16.59 2°57.51 18.620126 4.350312 32.299926 1.746956
2003-09-02 06:47:57 51°16.6 2°57.54 18.620126 4.350312 32.299926 1.746956
2003-09-02 06:48:01 51°16.61 2°57.56 18.619383 4.350945 32.305737 1.848084
2003-09-02 06:48:07 51°16.62 2°57.6 18.68551 4.349257 32.292854 1.814375
2003-09-02 06:48:11 51°16.63 2°57.62 18.681757 4.350101 32.297056 1.881794
2003-09-02 06:48:17 51°16.64 2°57.65 18.610922 4.350101 32.299855 1.848084
2003-09-02 06:48:21 51°16.65 2°57.67 18.71078 4.350312 32.298807 1.780665
2003-09-02 06:48:27 51°16.66 2°57.7 18.71078 4.350312 32.298807 1.780665
2003-09-02 06:48:31 51°16.67 2°57.72 18.774061 4.349679 32.295235 1.814375
2003-09-02 06:48:37 51°16.68 2°57.75 18.705793 4.349468 32.290687 1.780665
2003-09-02 06:48:41 51°16.69 2°57.77 18.807779 4.350418 32.301921 1.814375
2003-09-02 06:48:47 51°16.7 2°57.8 18.605886 4.346726 32.272972 1.814375
2003-09-02 06:48:51 51°16.71 2°57.82 18.671159 4.349679 32.297475 1.814375
2003-09-02 06:48:57 51°16.72 2°57.85 18.671159 4.349679 32.297475 1.814375
2003-09-02 06:49:01 51°16.73 2°57.87 18.772455 4.352 32.31953 1.814375
2003-09-02 06:49:07 51°16.75 2°57.91 18.705875 4.348941 32.298067 1.848084
2003-09-02 06:49:11 51°16.75 2°57.93 18.637045 4.349363 32.298208 1.814375
2003-09-02 06:49:17 51°16.77 2°57.96 18.737978 4.347464 32.284134 1.881794
2003-09-02 06:49:21 51°16.77 2°57.98 18.703691 4.348836 32.292712 1.814375
2003-09-02 06:49:27 51°16.79 2°58.01 18.703691 4.348836 32.292712 1.814375
2003-09-02 06:49:31 51°16.79 2°58.03 18.638489 4.344827 32.263373 1.848084
2003-09-02 06:49:37 51°16.81 2°58.06 18.670334 4.349363 32.301568 1.881794
2003-09-02 06:49:41 51°16.81 2°58.08 18.669427 4.348414 32.29425 1.848084
2003-09-02 06:49:47 51°16.83 2°58.11 18.602625 4.345566 32.271737 1.915503
2003-09-02 06:49:51 51°16.83 2°58.13 18.704927 4.347148 32.283187 1.881794
2003-09-02 06:49:57 51°16.85 2°58.16 18.704927 4.347148 32.283187 1.881794
2003-09-02 06:50:01 51°16.85 2°58.18 18.702784 4.348414 32.29761 1.881794
2003-09-02 06:50:07 51°16.87 2°58.21 18.601386 4.344933 32.266486 1.881794
2003-09-02 06:50:11 51°16.87 2°58.23 18.739256 4.345882 32.275482 1.881794
2003-09-02 06:50:17 51°16.89 2°58.26 18.805145 4.345988 32.277477 1.982922
2003-09-02 06:50:21 51°16.89 2°58.28 18.636302 4.347254 32.286861 1.915503
2003-09-02 06:50:27 51°16.9 2°58.31 18.636302 4.347254 32.286861 1.915503
2003-09-02 06:50:31 51°16.91 2°58.33 18.636839 4.345777 32.274607 1.982922
2003-09-02 06:50:37 51°16.92 2°58.37 18.674293 4.345671 32.274291 1.982922
2003-09-02 06:50:41 51°16.93 2°58.39 18.706947 4.347886 32.290434 1.982922
2003-09-02 06:50:47 51°16.94 2°58.42 18.675324 4.344722 32.267533 1.982922
2003-09-02 06:50:51 51°16.95 2°58.44 18.776697 4.343773 32.259656 1.982922
2003-09-02 06:50:57 51°16.96 2°58.47 18.776697 4.343773 32.259656 1.982922
2003-09-02 06:51:01 51°16.97 2°58.49 18.747536 4.344511 32.264104 2.08405
2003-09-02 06:51:07 51°16.98 2°58.52 18.677386 4.3443 32.26683 2.016631
2003-09-02 06:51:11 51°16.99 2°58.54 18.643523 4.343245 32.252483 2.117759
2003-09-02 06:51:17 51°17 2°58.57 18.643399 4.342191 32.24485 2.185178
2003-09-02 06:51:21 51°17.01 2°58.59 18.678871 4.342612 32.245555 2.185178
2003-09-02 06:51:27 51°17.02 2°58.62 18.678871 4.342612 32.245555 2.185178
2003-09-02 06:51:31 51°17.03 2°58.64 18.781226 4.343878 32.257175 2.286306
2003-09-02 06:51:37 51°17.04 2°58.67 18.647607 4.343034 32.244583 2.353725
2003-09-02 06:51:41 51°17.05 2°58.69 18.718776 4.342612 32.241642 2.387435
2003-09-02 06:51:47 51°17.06 2°58.72 18.717334 4.341347 32.23226 2.454853
2003-09-02 06:51:51 51°17.07 2°58.74 18.585161 4.339764 32.219695 2.488563
2003-09-02 06:51:57 51°17.08 2°58.77 18.585161 4.339764 32.219695 2.488563
2003-09-02 06:52:01 51°17.09 2°58.79 18.688231 4.340925 32.230437 2.555982
2003-09-02 06:52:07 51°17.1 2°58.82 18.689756 4.34314 32.246017 2.589691
2003-09-02 06:52:11 51°17.11 2°58.84 18.721331 4.341241 32.228592 2.65711
2003-09-02 06:52:17 51°17.12 2°58.87 18.789337 4.342085 32.23615 2.724529
2003-09-02 06:52:21 51°17.13 2°58.89 18.786785 4.343245 32.241862 2.758238
2003-09-02 06:52:27 51°17.14 2°58.92 18.786785 4.343245 32.241862 2.758238
2003-09-02 06:52:31 51°17.15 2°58.94 18.686582 4.34314 32.240428 2.724529
2003-09-02 06:52:37 51°17.16 2°58.97 18.719064 4.341979 32.234157 2.724529
2003-09-02 06:52:41 51°17.17 2°58.99 18.718694 4.342401 32.234305 2.758238
2003-09-02 06:52:47 51°17.18 2°59.02 18.718776 4.342401 32.234305 2.791947
2003-09-02 06:52:51 51°17.19 2°59.04 18.683283 4.340608 32.2172 2.825657
2003-09-02 06:52:57 51°17.2 2°59.07 18.683283 4.340608 32.2172 2.825657
2003-09-02 06:53:01 51°17.21 2°59.09 18.582146 4.340081 32.215618 2.724529
2003-09-02 06:53:07 51°17.22 2°59.12 18.752809 4.341557 32.230658 2.758238
2003-09-02 06:53:11 51°17.23 2°59.14 18.681675 4.342085 32.23168 2.859366
2003-09-02 06:53:17 51°17.24 2°59.17 18.716798 4.34103 32.222374 2.758238
2003-09-02 06:53:21 51°17.25 2°59.19 18.752892 4.343351 32.239943 2.724529
2003-09-02 06:53:27 51°17.26 2°59.23 18.752892 4.343351 32.239943 2.724529
2003-09-02 06:53:31 51°17.27 2°59.25 18.64934 4.34103 32.225166 2.724529
2003-09-02 06:53:37 51°17.28 2°59.28 18.683489 4.342085 32.233915 2.690819
2003-09-02 06:53:41 51°17.29 2°59.3 18.783161 4.340925 32.223174 2.65711
2003-09-02 06:53:47 51°17.3 2°59.33 18.613109 4.341557 32.230099 2.65711
2003-09-02 06:53:51 51°17.31 2°59.35 18.647689 4.340819 32.225651 2.690819
2003-09-02 06:53:57 51°17.32 2°59.38 18.647689 4.340819 32.225651 2.690819
2003-09-02 06:54:01 51°17.33 2°59.4 18.715314 4.340503 32.221351 2.758238
2003-09-02 06:54:07 51°17.34 2°59.43 18.750502 4.340714 32.222542 2.65711
2003-09-02 06:54:11 51°17.35 2°59.45 18.718694 4.342507 32.238532 2.690819
2003-09-02 06:54:17 51°17.36 2°59.48 18.619837 4.340714 32.222542 2.758238
2003-09-02 06:54:21 51°17.37 2°59.5 18.720672 4.339553 32.216269 2.690819
2003-09-02 06:54:27 51°17.38 2°59.53 18.720672 4.339553 32.216269 2.690819
2003-09-02 06:54:31 51°17.39 2°59.55 18.686747 4.340503 32.223585 2.724529
2003-09-02 06:54:37 51°17.4 2°59.58 18.685922 4.340292 32.223511 2.791947
2003-09-02 06:54:41 51°17.41 2°59.6 18.753262 4.337655 32.198848 2.859366
2003-09-02 06:54:47 51°17.42 2°59.63 18.654372 4.339448 32.212603 2.926785
2003-09-02 06:54:51 51°17.43 2°59.65 18.687695 4.339342 32.210053 2.859366
2003-09-02 06:54:57 51°17.44 2°59.68 18.687695 4.339342 32.210053 2.859366
2003-09-02 06:55:01 51°17.45 2°59.7 18.588423 4.340925 32.220382 2.859366
2003-09-02 06:55:07 51°17.46 2°59.74 18.75734 4.343456 32.242494 2.791947
2003-09-02 06:55:11 51°17.47 2°59.76 18.591684 4.340608 32.219992 2.791947
2003-09-02 06:55:17 51°17.48 2°59.79 18.696435 4.343772 32.241766 2.65711
2003-09-02 06:55:21 51°17.49 2°59.81 18.730891 4.341241 32.224682 2.589691
2003-09-02 06:55:27 51°17.5 2°59.84 18.730891 4.341241 32.224682 2.589691
2003-09-02 06:55:31 51°17.51 2°59.86 18.631268 4.342401 32.233187 2.522272
2003-09-02 06:55:37 51°17.52 2°59.89 18.631557 4.344405 32.248132 2.522272
2003-09-02 06:55:41 51°17.53 2°59.91 18.634445 4.344194 32.249177 2.488563
2003-09-02 06:55:47 51°17.54 2°59.94 18.671077 4.346093 32.26213 2.488563
2003-09-02 06:55:51 51°17.55 2°59.96 18.741068 4.347464 32.271826 2.522272
2003-09-02 06:55:57 51°17.56 2°59.99 18.741068 4.347464 32.271826 2.522272
2003-09-02 06:56:01 51°17.57 3°0.01 18.607991 4.345355 32.254329 2.454853
2003-09-02 06:56:07 51°17.58 3°0.04 18.71214 4.34873 32.280646 2.454853
2003-09-02 06:56:11 51°17.59 3°0.06 18.680273 4.348413 32.276344 2.454853
2003-09-02 06:56:17 51°17.6 3°0.09 18.649711 4.34989 32.283557 2.454853
2003-09-02 06:56:21 51°17.61 3°0.11 18.685839 4.34873 32.276172 2.488563
2003-09-02 06:56:27 51°17.62 3°0.14 18.685839 4.34873 32.276172 2.488563
2003-09-02 06:56:31 51°17.63 3°0.16 18.6193 4.349996 32.283873 2.488563
2003-09-02 06:56:37 51°17.64 3°0.2 18.722403 4.350839 32.288633 2.454853
2003-09-02 06:56:41 51°17.65 3°0.22 18.656394 4.349574 32.275342 2.488563
2003-09-02 06:56:47 51°17.66 3°0.25 18.657384 4.347358 32.256977 2.488563
2003-09-02 06:56:51 51°17.67 3°0.27 18.759523 4.352527 32.299271 2.488563
2003-09-02 06:56:57 51°17.68 3°0.3 18.759523 4.352527 32.299271 2.488563
2003-09-02 06:57:01 51°17.69 3°0.32 18.725782 4.352843 32.304133 2.488563
2003-09-02 06:57:07 51°17.7 3°0.35 18.657672 4.352105 32.292976 2.488563
2003-09-02 06:57:11 51°17.71 3°0.37 18.759235 4.35221 32.289378 2.522272
2003-09-02 06:57:17 51°17.72 3°0.4 18.727677 4.350101 32.270214 2.522272
2003-09-02 06:57:21 51°17.73 3°0.42 18.793166 4.353793 32.300817 2.555982
2003-09-02 06:57:27 51°17.74 3°0.45 18.793166 4.353793 32.300817 2.555982
2003-09-02 06:57:31 51°17.75 3°0.47 18.758329 4.355164 32.310506 2.555982
2003-09-02 06:57:37 51°17.76 3°0.5 18.755445 4.353371 32.293964 2.555982
2003-09-02 06:57:41 51°17.77 3°0.52 18.79012 4.354953 32.30652 2.555982
2003-09-02 06:57:47 51°17.78 3°0.55 18.790161 4.353687 32.296587 2.555982
2003-09-02 06:57:51 51°17.79 3°0.57 18.653547 4.353371 32.298997 2.6234
2003-09-02 06:57:57 51°17.8 3°0.6 18.653547 4.353371 32.298997 2.6234
2003-09-02 06:58:01 51°17.81 3°0.62 18.785714 4.351999 32.284834 2.589691
2003-09-02 06:58:07 51°17.82 3°0.65 18.716592 4.353687 32.297146 2.589691
2003-09-02 06:58:11 51°17.83 3°0.67 18.716509 4.350734 32.273224 2.690819
2003-09-02 06:58:17 51°17.84 3°0.7 18.81597 4.352421 32.289449 2.65711
2003-09-02 06:58:21 51°17.85 3°0.73 18.750791 4.353792 32.297461 2.690819
2003-09-02 06:58:27 51°17.86 3°0.75 18.750791 4.353792 32.297461 2.690819
2003-09-02 06:58:31 51°17.87 3°0.78 18.645627 4.351156 32.281192 2.724529
2003-09-02 06:58:37 51°17.88 3°0.81 18.677964 4.35105 32.287027 2.758238
2003-09-02 06:58:41 51°17.89 3°0.83 18.710121 4.351261 32.282626 2.825657
2003-09-02 06:58:47 51°17.9 3°0.86 18.810949 4.351261 32.282626 2.791947
2003-09-02 06:58:51 51°17.91 3°0.88 18.743993 4.351367 32.285177 2.791947
2003-09-02 06:58:57 51°17.92 3°0.91 18.743993 4.351367 32.285177 2.791947
2003-09-02 06:59:01 51°17.93 3°0.93 18.74214 4.351999 32.288188 2.893076
2003-09-02 06:59:07 51°17.94 3°0.96 18.67483 4.349679 32.272304 2.926785
2003-09-02 06:59:11 51°17.95 3°0.98 18.636467 4.34873 32.264434 3.027913
2003-09-02 06:59:17 51°17.96 3°1.01 18.706865 4.34873 32.26611 2.994204
2003-09-02 06:59:21 51°17.97 3°1.03 18.741439 4.347042 32.25603 3.129042
2003-09-02 06:59:27 51°17.98 3°1.06 18.741439 4.347042 32.25603 3.129042
2003-09-02 06:59:31 51°17.99 3°1.08 18.73905 4.346409 32.248548 3.095332
2003-09-02 06:59:37 51°18 3°1.11 18.604482 4.347358 32.254743 3.129042
2003-09-02 06:59:41 51°18.01 3°1.13 18.705669 4.348308 32.26373 3.129042
2003-09-02 06:59:47 51°18.02 3°1.16 18.702371 4.345249 32.24619 3.19646
2003-09-02 06:59:51 51°18.03 3°1.18 18.702536 4.349995 32.278281 3.162751
2003-09-02 06:59:57 51°18.04 3°1.21 18.702536 4.349995 32.278281 3.162751
2003-09-02 07:00:01 51°18.05 3°1.23 18.700929 4.344194 32.232419 3.263879
2003-09-02 07:00:07 51°18.06 3°1.26 18.701341 4.343983 32.230112 3.297589
2003-09-02 07:00:11 51°18.07 3°1.28 18.699981 4.343878 32.230354 3.263879
2003-09-02 07:00:17 51°18.08 3°1.31 18.633538 4.343878 32.230354 3.297589
2003-09-02 07:00:21 51°18.09 3°1.33 18.698455 4.344089 32.234895 3.297589
2003-09-02 07:00:27 51°18.1 3°1.36 18.698455 4.344089 32.234895 3.297589
2003-09-02 07:00:31 51°18.11 3°1.38 18.7346 4.343667 32.230838 3.331298
2003-09-02 07:00:37 51°18.12 3°1.41 18.666581 4.345671 32.248013 3.365007
2003-09-02 07:00:41 51°18.13 3°1.43 18.630732 4.344089 32.235453 3.365007
2003-09-02 07:00:47 51°18.14 3°1.47 18.763807 4.343456 32.229648 3.331298
2003-09-02 07:00:51 51°18.15 3°1.49 18.766237 4.3443 32.240553 3.398717
2003-09-02 07:00:57 51°18.16 3°1.52 18.766237 4.3443 32.240553 3.398717
2003-09-02 07:01:01 51°18.17 3°1.54 18.665138 4.343139 32.231491 3.432426
2003-09-02 07:01:07 51°18.18 3°1.57 18.632093 4.343139 32.229257 3.432426
2003-09-02 07:01:11 51°18.19 3°1.59 18.800206 4.342717 32.224085 3.466136
2003-09-02 07:01:17 51°18.2 3°1.62 18.70031 4.342823 32.227192 3.499845
2003-09-02 07:01:21 51°18.21 3°1.64 18.801564 4.344933 32.245801 3.499845
2003-09-02 07:01:27 51°18.22 3°1.67 18.801564 4.344933 32.245801 3.499845
2003-09-02 07:01:31 51°18.23 3°1.69 18.732498 4.34335 32.22989 3.432426
2003-09-02 07:01:37 51°18.24 3°1.72 18.601758 4.342928 32.229183 3.499845
2003-09-02 07:01:41 51°18.25 3°1.74 18.769325 4.342085 32.217164 3.499845
2003-09-02 07:01:47 51°18.26 3°1.77 18.635271 4.341135 32.2132 3.499845
2003-09-02 07:01:51 51°18.27 3°1.79 18.635477 4.344089 32.236012 3.499845
2003-09-02 07:01:57 51°18.28 3°1.82 18.635477 4.344089 32.236012 3.499845
2003-09-02 07:02:01 51°18.29 3°1.84 18.702413 4.34335 32.229332 3.567264
2003-09-02 07:02:07 51°18.3 3°1.87 18.769243 4.341557 32.21614 3.567264
2003-09-02 07:02:11 51°18.31 3°1.89 18.836709 4.343245 32.228457 3.600973
2003-09-02 07:02:17 51°18.32 3°1.92 18.668272 4.342823 32.228867 3.567264
2003-09-02 07:02:21 51°18.33 3°1.94 18.767802 4.344616 32.238709 3.600973
2003-09-02 07:02:27 51°18.34 3°1.97 18.767802 4.344616 32.238709 3.600973
2003-09-02 07:02:31 51°18.35 3°1.99 18.667777 4.315715 32.000893 3.634683
2003-09-02 07:02:37 51°18.36 3°2.02 18.734147 4.342401 32.228719 3.634683
2003-09-02 07:02:41 51°18.37 3°2.04 18.632836 4.343561 32.230522 3.634683
2003-09-02 07:02:47 51°18.38 3°2.07 18.703113 4.3443 32.237202 3.600973
2003-09-02 07:02:51 51°18.39 3°2.09 18.635725 4.343878 32.233704 3.634683
2003-09-02 07:02:57 51°18.4 3°2.12 18.635725 4.343878 32.233704 3.634683
2003-09-02 07:03:01 51°18.41 3°2.14 18.669881 4.344194 32.237444 3.600973
2003-09-02 07:03:07 51°18.42 3°2.17 18.600189 4.344722 32.239583 3.533554
2003-09-02 07:03:11 51°18.43 3°2.19 18.632176 4.344511 32.241185 3.533554
2003-09-02 07:03:17 51°18.45 3°2.22 18.768131 4.344933 32.241332 3.567264
2003-09-02 07:03:21 51°18.46 3°2.24 18.701506 4.345038 32.242765 3.499845
2003-09-02 07:03:27 51°18.47 3°2.27 18.701506 4.345038 32.242765 3.499845
2003-09-02 07:03:31 51°18.48 3°2.29 18.734311 4.34546 32.246822 3.533554
2003-09-02 07:03:37 51°18.49 3°2.31 18.802305 4.346093 32.250394 3.499845
2003-09-02 07:03:41 51°18.5 3°2.33 18.702949 4.344089 32.235453 3.432426
2003-09-02 07:03:47 51°18.52 3°2.36 18.636591 4.346093 32.25207 3.331298
2003-09-02 07:03:51 51°18.52 3°2.38 18.773155 4.347464 32.260645 3.263879
2003-09-02 07:03:57 51°18.54 3°2.41 18.773155 4.347464 32.260645 3.263879
2003-09-02 07:04:01 51°18.55 3°2.43 18.775338 4.347148 32.263051 3.263879
2003-09-02 07:04:07 51°18.56 3°2.46 18.743623 4.345143 32.244198 3.19646
2003-09-02 07:04:11 51°18.57 3°2.47 18.678747 4.343772 32.235063 3.23017
2003-09-02 07:04:17 51°18.58 3°2.5 18.613027 4.344933 32.243008 3.23017
2003-09-02 07:04:21 51°18.59 3°2.52 18.752315 4.348941 32.274008 3.263879
2003-09-02 07:04:27 51°18.61 3°2.55 18.752315 4.348941 32.274008 3.263879
2003-09-02 07:04:31 51°18.62 3°2.57 18.79049 4.346937 32.259066 3.263879
2003-09-02 07:04:37 51°18.63 3°2.59 18.691034 4.347991 32.266695 3.398717
2003-09-02 07:04:41 51°18.64 3°2.61 18.829714 4.348519 32.267155 3.398717
2003-09-02 07:04:47 51°18.65 3°2.64 18.662292 4.34778 32.262151 3.466136
2003-09-02 07:04:51 51°18.66 3°2.66 18.701052 4.345987 32.246726 3.466136
2003-09-02 07:04:57 51°18.68 3°2.69 18.701052 4.345987 32.246726 3.466136
2003-09-02 07:05:01 51°18.68 3°2.71 18.738143 4.34778 32.261034 3.567264
2003-09-02 07:05:07 51°18.7 3°2.74 18.707277 4.347991 32.256637 3.668392
2003-09-02 07:05:11 51°18.71 3°2.76 18.743252 4.34662 32.244155 3.702101
2003-09-02 07:05:17 51°18.72 3°2.78 18.746795 4.348835 32.258605 3.702101
2003-09-02 07:05:21 51°18.73 3°2.8 18.714036 4.348518 32.251516 3.76952
2003-09-02 07:05:27 51°18.74 3°2.83 18.714036 4.348518 32.251516 3.76952
2003-09-02 07:05:31 51°18.75 3°2.85 18.850819 4.347886 32.246271 3.80323
2003-09-02 07:05:37 51°18.76 3°2.88 18.852177 4.350417 32.261666 3.836939
2003-09-02 07:05:41 51°18.77 3°2.9 18.786579 4.347885 32.241248 3.870648
2003-09-02 07:05:47 51°18.79 3°2.92 18.686417 4.347569 32.236953 3.870648
2003-09-02 07:05:51 51°18.8 3°2.94 18.789049 4.349468 32.248777 3.904358
2003-09-02 07:05:57 51°18.81 3°2.97 18.789049 4.349468 32.248777 3.904358
2003-09-02 07:06:01 51°18.82 3°2.99 18.890708 4.350839 32.257346 3.938067
2003-09-02 07:06:07 51°18.83 3°3.02 18.821032 4.349679 32.253315 3.870648
2003-09-02 07:06:11 51°18.84 3°3.04 18.750173 4.349256 32.238662 3.938067
2003-09-02 07:06:17 51°18.85 3°3.07 18.914097 4.350839 32.253998 3.870648
2003-09-02 07:06:21 51°18.86 3°3.08 18.672974 4.350628 32.251135 3.836939
2003-09-02 07:06:27 51°18.88 3°3.11 18.672974 4.350628 32.251135 3.836939
2003-09-02 07:06:31 51°18.89 3°3.13 18.707153 4.350628 32.248346 3.870648
2003-09-02 07:06:37 51°18.9 3°3.16 18.808273 4.349573 32.241283 3.836939
2003-09-02 07:06:41 51°18.91 3°3.18 18.738432 4.348835 32.235168 3.702101
2003-09-02 07:06:47 51°18.92 3°3.21 18.769408 4.348518 32.235335 3.668392
2003-09-02 07:06:51 51°18.93 3°3.23 18.802675 4.351999 32.264725 3.533554
2003-09-02 07:06:57 51°18.94 3°3.26 18.802675 4.351999 32.264725 3.533554
2003-09-02 07:07:01 51°18.95 3°3.27 18.736248 4.350311 32.252977 3.499845
2003-09-02 07:07:07 51°18.97 3°3.3 18.774514 4.351788 32.269119 3.466136
2003-09-02 07:07:11 51°18.98 3°3.32 18.675407 4.350311 32.254651 3.466136
2003-09-02 07:07:17 51°18.99 3°3.35 18.84757 4.3501 32.256811 3.466136
2003-09-02 07:07:21 51°19 3°3.37 18.748607 4.349995 32.257053 3.466136
2003-09-02 07:07:27 51°19.01 3°3.4 18.748607 4.349995 32.257053 3.466136
2003-09-02 07:07:31 51°19.02 3°3.42 18.821649 4.350206 32.259918 3.466136
2003-09-02 07:07:37 51°19.04 3°3.44 18.858264 4.351999 32.271425 3.499845
2003-09-02 07:07:41 51°19.04 3°3.46 18.661013 4.353159 32.282715 3.499845
2003-09-02 07:07:47 51°19.06 3°3.49 18.932793 4.350628 32.260064 3.499845
2003-09-02 07:07:51 51°19.07 3°3.51 18.732952 4.351472 32.263147 3.499845
2003-09-02 07:07:57 51°19.08 3°3.54 18.732952 4.351472 32.263147 3.499845
2003-09-02 07:08:01 51°19.09 3°3.56 18.80354 4.351261 32.2614 3.533554
2003-09-02 07:08:07 51°19.1 3°3.58 18.908589 4.3501 32.24844 3.567264
2003-09-02 07:08:11 51°19.11 3°3.6 18.912535 4.350628 32.249461 3.600973
2003-09-02 07:08:17 51°19.13 3°3.63 18.88043 4.35221 32.255871 3.668392
2003-09-02 07:08:21 51°19.13 3°3.65 18.780691 4.351577 32.252861 3.702101
2003-09-02 07:08:27 51°19.15 3°3.68 18.780691 4.351577 32.252861 3.702101
2003-09-02 07:08:31 51°19.16 3°3.7 18.78172 4.351999 32.252451 3.702101
2003-09-02 07:08:37 51°19.17 3°3.73 18.815929 4.351999 32.250778 3.735811
2003-09-02 07:08:41 51°19.18 3°3.74 18.814323 4.349784 32.230765 3.80323
2003-09-02 07:08:47 51°19.19 3°3.77 18.747536 4.35221 32.249179 3.76952
2003-09-02 07:08:51 51°19.2 3°3.79 18.949883 4.353581 32.26109 3.735811
2003-09-02 07:08:57 51°19.21 3°3.82 18.949883 4.353581 32.26109 3.735811
2003-09-02 07:09:01 51°19.22 3°3.84 18.883966 4.353897 32.260364 3.76952
2003-09-02 07:09:07 51°19.24 3°3.86 18.817575 4.355057 32.263277 3.80323
2003-09-02 07:09:11 51°19.25 3°3.88 18.818562 4.353053 32.24836 3.735811
2003-09-02 07:09:17 51°19.26 3°3.91 18.815682 4.352631 32.245982 3.76952
2003-09-02 07:09:21 51°19.27 3°3.93 18.783244 4.356112 32.273683 3.80323
2003-09-02 07:09:27 51°19.28 3°3.96 18.783244 4.356112 32.273683 3.80323
2003-09-02 07:09:31 51°19.29 3°3.98 18.715396 4.352842 32.246057 3.80323
2003-09-02 07:09:37 51°19.31 3°4 18.81597 4.353897 32.257018 3.76952
2003-09-02 07:09:41 51°19.32 3°4.02 18.784602 4.354952 32.262404 3.80323
2003-09-02 07:09:47 51°19.33 3°4.05 18.716798 4.354425 32.258596 3.80323
2003-09-02 07:09:51 51°19.34 3°4.07 18.784891 4.354636 32.260342 3.76952
2003-09-02 07:09:57 51°19.35 3°4.1 18.784891 4.354636 32.260342 3.76952
2003-09-02 07:10:01 51°19.36 3°4.11 18.787402 4.355057 32.266066 3.76952
2003-09-02 07:10:07 51°19.37 3°4.14 18.788843 4.354425 32.257481 3.76952
2003-09-02 07:10:11 51°19.38 3°4.16 18.788061 4.354846 32.260416 3.702101
2003-09-02 07:10:17 51°19.4 3°4.19 18.792507 4.352842 32.246614 3.735811
2003-09-02 07:10:21 51°19.4 3°4.21 18.723062 4.354741 32.259543 3.80323
2003-09-02 07:10:27 51°19.42 3°4.24 18.723062 4.354741 32.259543 3.80323
2003-09-02 07:10:31 51°19.43 3°4.26 18.961794 4.354635 32.256997 3.76952
2003-09-02 07:10:37 51°19.44 3°4.28 18.861596 4.35453 32.261142 3.76952
2003-09-02 07:10:41 51°19.45 3°4.3 18.762695 4.355374 32.262551 3.836939
2003-09-02 07:10:47 51°19.46 3°4.33 18.930657 4.354846 32.256514 3.836939
2003-09-02 07:10:51 51°19.47 3°4.35 18.729326 4.355163 32.258576 3.870648
2003-09-02 07:10:57 51°19.49 3°4.38 18.729326 4.355163 32.258576 3.870648
2003-09-02 07:11:01 51°19.49 3°4.4 18.795348 4.353897 32.248657 3.836939
2003-09-02 07:11:07 51°19.51 3°4.42 18.724339 4.354213 32.251276 3.870648
2003-09-02 07:11:11 51°19.52 3°4.44 18.790325 4.346619 32.183426 3.836939
2003-09-02 07:11:17 51°19.53 3°4.47 18.689674 4.349467 32.205874 3.870648
2003-09-02 07:11:21 51°19.54 3°4.49 18.755322 4.35569 32.261826 3.836939
2003-09-02 07:11:27 51°19.55 3°4.52 18.755322 4.35569 32.261826 3.836939
2003-09-02 07:11:31 51°19.56 3°4.54 18.719806 4.355796 32.258797 3.76952
2003-09-02 07:11:37 51°19.57 3°4.57 18.753262 4.357061 32.269272 3.76952
2003-09-02 07:11:41 51°19.58 3°4.58 18.823213 4.355796 32.259912 3.735811
2003-09-02 07:11:47 51°19.6 3°4.61 18.822554 4.356218 32.263403 3.735811
2003-09-02 07:11:51 51°19.6 3°4.63 18.82527 4.354741 32.254526 3.76952
2003-09-02 07:11:57 51°19.62 3°4.66 18.82527 4.354741 32.254526 3.76952
2003-09-02 07:12:01 51°19.63 3°4.68 18.760429 4.356323 32.265391 3.80323
2003-09-02 07:12:07 51°19.64 3°4.71 18.898519 4.355901 32.266917 3.76952
2003-09-02 07:12:11 51°19.65 3°4.73 18.836338 4.356218 32.264518 3.76952
2003-09-02 07:12:17 51°19.66 3°4.75 18.706123 4.357694 32.277298 3.836939
2003-09-02 07:12:21 51°19.67 3°4.77 18.845225 4.356639 32.269683 3.938067
2003-09-02 07:12:27 51°19.68 3°4.8 18.845225 4.356639 32.269683 3.938067
2003-09-02 07:12:31 51°19.69 3°4.82 18.851354 4.355585 32.26151 3.870648
2003-09-02 07:12:37 51°19.71 3°4.85 18.9574 4.358327 32.283094 3.938067
2003-09-02 07:12:41 51°19.72 3°4.86 18.828562 4.358538 32.276475 4.039195
2003-09-02 07:12:47 51°19.73 3°4.89 18.76323 4.357167 32.270702 4.072905
2003-09-02 07:12:51 51°19.74 3°4.91 18.867024 4.358011 32.270996 4.174033
2003-09-02 07:12:57 51°19.75 3°4.94 18.867024 4.358011 32.270996 4.174033
2003-09-02 07:13:01 51°19.76 3°4.96 18.869122 4.359065 32.278609 4.207742
2003-09-02 07:13:07 51°19.77 3°4.99 18.837449 4.359276 32.274223 4.140324
2003-09-02 07:13:11 51°19.78 3°5 19.008762 4.360647 32.283338 4.106614
2003-09-02 07:13:17 51°19.8 3°5.03 18.911836 4.360647 32.278322 4.207742
2003-09-02 07:13:21 51°19.8 3°5.05 18.949431 4.360542 32.276892 4.241452
2003-09-02 07:13:27 51°19.82 3°5.08 18.949431 4.360542 32.276892 4.241452
2003-09-02 07:13:31 51°19.83 3°5.1 18.817204 4.364339 32.301612 4.174033
2003-09-02 07:13:37 51°19.84 3°5.12 18.888488 4.36244 32.285352 4.207742
2003-09-02 07:13:41 51°19.85 3°5.14 18.891531 4.363179 32.292016 4.275161
2003-09-02 07:13:47 51°19.86 3°5.17 18.860691 4.363495 32.290174 4.207742
2003-09-02 07:13:51 51°19.87 3°5.19 18.795965 4.364866 32.299842 4.275161
2003-09-02 07:13:57 51°19.88 3°5.22 18.795965 4.364866 32.299842 4.275161
2003-09-02 07:14:01 51°19.89 3°5.23 18.797571 4.364128 32.29095 4.207742
2003-09-02 07:14:07 51°19.91 3°5.26 18.865667 4.366765 32.311083 4.308871
2003-09-02 07:14:11 51°19.91 3°5.28 18.798765 4.365288 32.294416 4.308871
2003-09-02 07:14:17 51°19.93 3°5.31 18.931889 4.365499 32.295046 4.308871
2003-09-02 07:14:21 51°19.94 3°5.33 18.899382 4.367398 32.305727 4.34258
2003-09-02 07:14:27 51°19.95 3°5.36 18.899382 4.367398 32.305727 4.34258
2003-09-02 07:14:31 51°19.96 3°5.38 18.900492 4.366026 32.294949 4.34258
2003-09-02 07:14:37 51°19.97 3°5.4 18.797653 4.36782 32.307544 4.275161
2003-09-02 07:14:41 51°19.98 3°5.42 18.833458 4.368663 32.311176 4.34258
2003-09-02 07:14:47 51°19.99 3°5.45 18.86723 4.369718 32.319894 4.34258
2003-09-02 07:14:51 51°20 3°5.47 18.833047 4.368452 32.313332 4.275161
2003-09-02 07:14:57 51°20.02 3°5.49 18.833047 4.368452 32.313332 4.275161
2003-09-02 07:15:01 51°20.03 3°5.51 18.935587 4.369191 32.314978 4.275161
2003-09-02 07:15:07 51°20.04 3°5.54 18.902301 4.371617 32.334474 4.308871
2003-09-02 07:15:11 51°20.05 3°5.56 18.903123 4.369402 32.317279 4.241452
2003-09-02 07:15:17 51°20.06 3°5.59 18.870191 4.368241 32.308246 4.275161
2003-09-02 07:15:21 51°20.07 3°5.61 19.037526 4.368769 32.311491 4.241452
2003-09-02 07:15:27 51°20.08 3°5.63 19.037526 4.368769 32.311491 4.241452
2003-09-02 07:15:31 51°20.09 3°5.65 18.93871 4.368663 32.312847 4.174033
2003-09-02 07:15:37 51°20.11 3°5.68 18.870273 4.368558 32.315876 4.174033
2003-09-02 07:15:41 51°20.11 3°5.7 18.94064 4.370035 32.320281 4.241452
2003-09-02 07:15:47 51°20.13 3°5.73 18.806298 4.369718 32.319337 4.174033
2003-09-02 07:15:51 51°20.14 3°5.74 18.875537 4.369718 32.317108 4.174033
2003-09-02 07:15:57 51°20.15 3°5.77 18.875537 4.369718 32.317108 4.174033
2003-09-02 07:16:01 51°20.16 3°5.79 18.842551 4.368452 32.309989 4.106614
2003-09-02 07:16:07 51°20.17 3°5.82 19.010896 4.37014 32.326726 4.072905
2003-09-02 07:16:11 51°20.18 3°5.83 19.011881 4.370667 32.327184 4.106614
2003-09-02 07:16:17 51°20.2 3°5.86 18.875701 4.369296 32.314178 4.039195
2003-09-02 07:16:21 51°20.2 3°5.88 18.842386 4.371089 32.327885 4.072905
2003-09-02 07:16:27 51°20.22 3°5.91 18.842386 4.371089 32.327885 4.072905
2003-09-02 07:16:31 51°20.23 3°5.93 18.909946 4.371511 32.3297 4.039195
2003-09-02 07:16:37 51°20.24 3°5.96 18.875701 4.370878 32.326698 4.039195
2003-09-02 07:16:41 51°20.25 3°5.97 18.909905 4.371933 32.329843 4.039195
2003-09-02 07:16:47 51°20.26 3°6 18.809261 4.373937 32.345291 4.039195
2003-09-02 07:16:51 51°20.27 3°6.02 18.808808 4.374254 32.347907 3.971777
2003-09-02 07:16:57 51°20.28 3°6.05 18.808808 4.374254 32.347907 3.971777
2003-09-02 07:17:01 51°20.29 3°6.07 18.840206 4.372039 32.330715 3.971777
2003-09-02 07:17:07 51°20.3 3°6.09 18.838684 4.373515 32.342362 3.971777
2003-09-02 07:17:11 51°20.31 3°6.11 18.835804 4.372671 32.334831 4.039195
2003-09-02 07:17:17 51°20.33 3°6.14 18.969351 4.373832 32.344977 4.005486
2003-09-02 07:17:21 51°20.34 3°6.16 18.969802 4.372671 32.335945 4.005486
2003-09-02 07:17:27 51°20.35 3°6.19 18.969802 4.372671 32.335945 4.005486
2003-09-02 07:17:31 51°20.36 3°6.21 18.898971 4.372777 32.33626 4.072905
2003-09-02 07:17:37 51°20.37 3°6.24 18.825846 4.372566 32.337861 4.140324
2003-09-02 07:17:41 51°20.38 3°6.26 18.78979 4.371828 32.335103 4.241452
2003-09-02 07:17:47 51°20.39 3°6.28 18.853534 4.371722 32.333673 4.241452
2003-09-02 07:17:51 51°20.4 3°6.3 18.820373 4.370562 32.323526 4.275161
2003-09-02 07:17:57 51°20.41 3°6.33 18.820373 4.370562 32.323526 4.275161
2003-09-02 07:18:01 51°20.42 3°6.35 18.886556 4.370984 32.327013 4.34258
2003-09-02 07:18:07 51°20.44 3°6.38 18.780032 4.373304 32.343963 4.34258
2003-09-02 07:18:11 51°20.45 3°6.4 18.812307 4.369929 32.321638 4.376289
2003-09-02 07:18:17 51°20.46 3°6.42 18.847035 4.369296 32.319751 4.443708
2003-09-02 07:18:21 51°20.47 3°6.44 18.846459 4.369507 32.323167 4.443708
2003-09-02 07:18:27 51°20.48 3°6.47 18.846459 4.369507 32.323167 4.443708
2003-09-02 07:18:31 51°20.49 3°6.49 18.814447 4.366976 32.304468 4.544836
2003-09-02 07:18:37 51°20.5 3°6.52 18.813212 4.367187 32.308441 4.612255
2003-09-02 07:18:41 51°20.51 3°6.54 18.978713 4.366976 32.308926 4.578546
2003-09-02 07:18:47 51°20.53 3°6.57 18.946474 4.36782 32.315903 4.612255
2003-09-02 07:18:51 51°20.53 3°6.58 18.881663 4.367609 32.313044 4.544836
2003-09-02 07:18:57 51°20.55 3°6.61 18.881663 4.367609 32.313044 4.544836
2003-09-02 07:19:01 51°20.56 3°6.63 18.813006 4.366976 32.309483 4.544836
2003-09-02 07:19:07 51°20.57 3°6.66 18.884089 4.366976 32.310041 4.578546
2003-09-02 07:19:11 51°20.58 3°6.68 18.850984 4.366976 32.311155 4.578546
2003-09-02 07:19:17 51°20.59 3°6.7 18.782708 4.366554 32.307667 4.612255
2003-09-02 07:19:21 51°20.6 3°6.72 18.984789 4.365394 32.294731 4.578546
2003-09-02 07:19:27 51°20.61 3°6.75 18.984789 4.365394 32.294731 4.578546
2003-09-02 07:19:31 51°20.62 3°6.77 18.856784 4.367187 32.3129 4.612255
2003-09-02 07:19:37 51°20.64 3°6.8 18.960357 4.366026 32.302191 4.612255
2003-09-02 07:19:41 51°20.64 3°6.81 18.927534 4.367081 32.306454 4.578546
2003-09-02 07:19:47 51°20.66 3°6.84 18.866366 4.367609 32.314716 4.578546
2003-09-02 07:19:51 51°20.67 3°6.86 18.902835 4.366765 32.311083 4.511127
2003-09-02 07:19:57 51°20.68 3°6.89 18.902835 4.366765 32.311083 4.511127
2003-09-02 07:20:01 51°20.69 3°6.91 18.97395 4.367292 32.311542 4.443708
2003-09-02 07:20:07 51°20.7 3°6.94 18.878662 4.367081 32.305897 4.376289
2003-09-02 07:20:11 51°20.71 3°6.95 18.880224 4.368347 32.313018 4.308871
2003-09-02 07:20:17 51°20.72 3°6.98 18.884213 4.369507 32.322052 4.174033
2003-09-02 07:20:21 51°20.73 3°7 18.887543 4.370668 32.331644 4.072905
2003-09-02 07:20:27 51°20.74 3°7.03 18.887543 4.370668 32.331644 4.072905
2003-09-02 07:20:31 51°20.75 3°7.05 18.923918 4.371511 32.334159 4.005486
2003-09-02 07:20:37 51°20.76 3°7.08 18.959618 4.373726 32.349682 3.971777
2003-09-02 07:20:41 51°20.77 3°7.09 18.893792 4.374992 32.357356 3.904358
2003-09-02 07:20:47 51°20.79 3°7.12 19.063325 4.375098 32.354323 3.836939
2003-09-02 07:20:51 51°20.8 3°7.14 18.861143 4.37668 32.366843 3.836939
2003-09-02 07:20:57 51°20.81 3°7.17 18.861143 4.37668 32.366843 3.836939
2003-09-02 07:21:01 51°20.82 3°7.18 18.927781 4.37668 32.364611 3.80323
2003-09-02 07:21:07 51°20.83 3°7.21 18.827821 4.376574 32.364855 3.76952
2003-09-02 07:21:11 51°20.84 3°7.23 18.894285 4.378789 32.379815 3.80323
2003-09-02 07:21:17 51°20.85 3°7.26 18.859622 4.379633 32.379535 3.735811
2003-09-02 07:21:21 51°20.86 3°7.27 18.959618 4.378262 32.370993 3.76952
2003-09-02 07:21:27 51°20.88 3°7.3 18.959618 4.378262 32.370993 3.76952
2003-09-02 07:21:31 51°20.89 3°7.32 18.820414 4.378156 32.369006 3.76952
2003-09-02 07:21:37 51°20.9 3°7.35 18.920836 4.379106 32.376293 3.735811
2003-09-02 07:21:41 51°20.91 3°7.37 18.819591 4.379317 32.376363 3.735811
2003-09-02 07:21:47 51°20.92 3°7.39 18.816505 4.380266 32.383091 3.76952
2003-09-02 07:21:51 51°20.93 3°7.41 18.915001 4.381532 32.39076 3.76952
2003-09-02 07:21:57 51°20.94 3°7.44 18.915001 4.381532 32.39076 3.76952
2003-09-02 07:22:01 51°20.95 3°7.46 18.846582 4.378684 32.370576 3.735811
2003-09-02 07:22:07 51°20.97 3°7.49 18.882404 4.379633 32.382325 3.80323
2003-09-02 07:22:11 51°20.97 3°7.51 18.848392 4.380688 32.3916 3.836939
2003-09-02 07:22:17 51°20.99 3°7.53 19.05217 4.379739 32.384312 3.870648
2003-09-02 07:22:21 51°21 3°7.55 18.880142 4.380161 32.387799 3.836939
2003-09-02 07:22:27 51°21.01 3°7.58 18.880142 4.380161 32.387799 3.836939
2003-09-02 07:22:31 51°21.01 3°7.6 18.845636 4.380583 32.392961 3.870648
2003-09-02 07:22:37 51°21.02 3°7.63 18.878333 4.376574 32.363182 3.938067
2003-09-02 07:22:41 51°21.03 3°7.66 18.806874 4.378684 32.380617 3.938067
2003-09-02 07:22:47 51°21.04 3°7.69 18.872288 4.377418 32.368482 4.039195
2003-09-02 07:22:51 51°21.05 3°7.71 18.903411 4.376574 32.360393 4.072905
2003-09-02 07:22:57 51°21.06 3°7.74 18.903411 4.376574 32.360393 4.072905
2003-09-02 07:23:01 51°21.07 3°7.76 18.900739 4.376363 32.360323 4.039195
2003-09-02 07:23:07 51°21.08 3°7.79 18.898971 4.377312 32.360918 3.971777
2003-09-02 07:23:11 51°21.09 3°7.81 18.963848 4.376152 32.36081 4.005486
2003-09-02 07:23:17 51°21.1 3°7.84 18.826669 4.375625 32.358124 3.971777
2003-09-02 07:23:21 51°21.1 3°7.86 18.885323 4.374043 32.344491 4.005486
2003-09-02 07:23:27 51°21.11 3°7.89 18.885323 4.374043 32.344491 4.005486
2003-09-02 07:23:31 51°21.12 3°7.91 18.851971 4.375414 32.357496 4.106614
2003-09-02 07:23:37 51°21.13 3°7.94 18.810619 4.373832 32.349996 4.072905
2003-09-02 07:23:41 51°21.14 3°7.96 18.910439 4.374254 32.35683 4.140324
2003-09-02 07:23:47 51°21.15 3°7.99 18.910233 4.374887 32.358157 4.207742
2003-09-02 07:23:51 51°21.15 3°8.01 18.839712 4.371406 32.337748 4.174033
2003-09-02 07:23:57 51°21.16 3°8.04 18.839712 4.371406 32.337748 4.174033
2003-09-02 07:24:01 51°21.17 3°8.06 18.874468 4.371617 32.338934 4.140324
2003-09-02 07:24:07 51°21.18 3°8.1 18.916973 4.371195 32.338792 4.106614
2003-09-02 07:24:11 51°21.19 3°8.12 18.915535 4.373938 32.364259 4.106614
2003-09-02 07:24:17 51°21.2 3°8.15 18.987827 4.369296 32.328671 4.072905
2003-09-02 07:24:21 51°21.2 3°8.17 18.894162 4.373516 32.36412 4.039195
2003-09-02 07:24:27 51°21.21 3°8.2 18.894162 4.373516 32.36412 4.039195
2003-09-02 07:24:31 51°21.22 3°8.22 18.835433 4.368664 32.326226 4.005486
2003-09-02 07:24:37 51°21.23 3°8.25 18.842139 4.372039 32.352465 3.971777
2003-09-02 07:24:41 51°21.24 3°8.27 18.847816 4.373516 32.363561 3.904358
2003-09-02 07:24:47 51°21.25 3°8.3 18.954401 4.372988 32.362549 3.836939
2003-09-02 07:24:51 51°21.25 3°8.32 18.92511 4.374254 32.367434 3.836939
2003-09-02 07:24:57 51°21.26 3°8.35 18.92511 4.374254 32.367434 3.836939
2003-09-02 07:25:01 51°21.27 3°8.37 18.928972 4.376469 32.380727 3.735811
2003-09-02 07:25:07 51°21.28 3°8.4 18.830249 4.376364 32.379296 3.634683
2003-09-02 07:25:11 51°21.29 3°8.42 18.831977 4.379212 32.39726 3.634683
2003-09-02 07:25:17 51°21.3 3°8.45 18.833047 4.382692 32.420454 3.567264
2003-09-02 07:25:21 51°21.31 3°8.47 18.834693 4.384169 32.428192 3.567264
2003-09-02 07:25:27 51°21.32 3°8.5 18.834693 4.384169 32.428192 3.567264
2003-09-02 07:25:31 51°21.32 3°8.52 18.868464 4.384486 32.428572 3.567264
2003-09-02 07:25:37 51°21.33 3°8.55 18.900204 4.386384 32.442592 3.533554
2003-09-02 07:25:41 51°21.34 3°8.57 19.035967 4.38649 32.438991 3.533554
2003-09-02 07:25:47 51°21.35 3°8.6 18.933574 4.387017 32.440556 3.533554
2003-09-02 07:25:51 51°21.36 3°8.62 18.830331 4.386912 32.446393 3.499845
2003-09-02 07:25:57 51°21.37 3°8.65 18.830331 4.386912 32.446393 3.499845
2003-09-02 07:26:01 51°21.37 3°8.67 18.964423 4.390498 32.46877 3.533554
2003-09-02 07:26:07 51°21.38 3°8.7 18.930041 4.388283 32.448223 3.567264
2003-09-02 07:26:11 51°21.39 3°8.72 18.999444 4.391447 32.469904 3.600973
2003-09-02 07:26:17 51°21.4 3°8.75 18.903041 4.391553 32.470776 3.600973
2003-09-02 07:26:21 51°21.41 3°8.77 18.844032 4.38997 32.461054 3.499845
2003-09-02 07:26:27 51°21.42 3°8.8 18.844032 4.38997 32.461054 3.499845
2003-09-02 07:26:31 51°21.42 3°8.82 18.886844 4.38997 32.459377 3.567264
2003-09-02 07:26:37 51°21.43 3°8.85 19.029525 4.387333 32.440377 3.499845
2003-09-02 07:26:41 51°21.44 3°8.87 18.968652 4.389338 32.454705 3.499845
2003-09-02 07:26:47 51°21.45 3°8.9 18.840329 4.389759 32.457074 3.398717
2003-09-02 07:26:51 51°21.46 3°8.92 18.945282 4.392397 32.477751 3.432426
2003-09-02 07:26:57 51°21.47 3°8.95 18.945282 4.392397 32.477751 3.432426
2003-09-02 07:27:01 51°21.48 3°8.97 18.880512 4.393346 32.483919 3.432426
2003-09-02 07:27:07 51°21.49 3°9 18.951855 4.395772 32.497255 3.432426
2003-09-02 07:27:11 51°21.49 3°9.02 18.921124 4.396088 32.498751 3.398717
2003-09-02 07:27:17 51°21.5 3°9.05 18.92285 4.39978 32.519743 3.466136
2003-09-02 07:27:21 51°21.51 3°9.07 18.854151 4.399042 32.511404 3.533554
2003-09-02 07:27:27 51°21.52 3°9.1 18.854151 4.399042 32.511404 3.533554
2003-09-02 07:27:31 51°21.53 3°9.12 18.887214 4.400413 32.518815 3.533554
2003-09-02 07:27:37 51°21.54 3°9.16 19.053441 4.399885 32.508864 3.533554
2003-09-02 07:27:41 51°21.55 3°9.17 18.950253 4.402101 32.524922 3.600973
2003-09-02 07:27:47 51°21.56 3°9.2 18.881787 4.403577 32.535441 3.600973
2003-09-02 07:27:51 51°21.56 3°9.22 18.909288 4.40189 32.518704 3.600973
2003-09-02 07:27:57 51°21.57 3°9.25 18.909288 4.40189 32.518704 3.600973
2003-09-02 07:28:01 51°21.58 3°9.27 19.143371 4.403894 32.53078 3.634683
2003-09-02 07:28:07 51°21.59 3°9.31 18.872535 4.403366 32.529222 3.567264
2003-09-02 07:28:11 51°21.6 3°9.33 18.973334 4.402839 32.526544 3.567264
2003-09-02 07:28:17 51°21.61 3°9.36 19.072101 4.403366 32.53146 3.533554
2003-09-02 07:28:21 51°21.61 3°9.38 18.902095 4.40305 32.527727 3.466136
2003-09-02 07:28:27 51°21.62 3°9.41 18.902095 4.40305 32.527727 3.466136
2003-09-02 07:28:31 51°21.63 3°9.43 18.933697 4.401679 32.519759 3.432426
2003-09-02 07:28:37 51°21.64 3°9.46 18.867271 4.403788 32.538863 3.432426
2003-09-02 07:28:41 51°21.64 3°9.48 18.832553 4.401468 32.522493 3.398717
2003-09-02 07:28:47 51°21.65 3°9.51 18.938997 4.399674 32.506003 3.432426
2003-09-02 07:28:51 51°21.66 3°9.53 18.873152 4.399569 32.507928 3.331298
2003-09-02 07:28:57 51°21.67 3°9.56 18.873152 4.399569 32.507928 3.331298
2003-09-02 07:29:01 51°21.68 3°9.58 19.114773 4.397037 32.490932 3.331298
2003-09-02 07:29:07 51°21.69 3°9.61 18.917713 4.398514 32.502012 3.331298
2003-09-02 07:29:11 51°21.69 3°9.63 19.025587 4.398725 32.504873 3.297589
2003-09-02 07:29:17 51°21.7 3°9.66 19.063325 4.399675 32.511597 3.297589
2003-09-02 07:29:21 51°21.71 3°9.68 18.898314 4.398409 32.502259 3.398717
2003-09-02 07:29:27 51°21.72 3°9.71 18.898314 4.398409 32.502259 3.398717
2003-09-02 07:29:31 51°21.72 3°9.72 19.034777 4.399253 32.5014 3.398717
2003-09-02 07:29:37 51°21.73 3°9.76 19.002359 4.402101 32.524363 3.398717
2003-09-02 07:29:41 51°21.74 3°9.77 18.904027 4.401362 32.517705 3.533554
2003-09-02 07:29:47 51°21.75 3°9.8 18.971527 4.401362 32.514908 3.499845
2003-09-02 07:29:51 51°21.76 3°9.82 18.869081 4.403788 32.530468 3.567264
2003-09-02 07:29:57 51°21.77 3°9.85 18.869081 4.403788 32.530468 3.567264
2003-09-02 07:30:01 51°21.77 3°9.87 19.003631 4.403788 32.52879 3.567264
2003-09-02 07:30:07 51°21.78 3°9.9 19.070379 4.403155 32.520767 3.466136
2003-09-02 07:30:11 51°21.79 3°9.92 19.004411 4.401678 32.505779 3.499845
2003-09-02 07:30:17 51°21.8 3°9.95 19.001292 4.406003 32.537569 3.499845
2003-09-02 07:30:21 51°21.81 3°9.97 18.967462 4.402311 32.508768 3.466136
2003-09-02 07:30:27 51°21.82 3°10 18.967462 4.402311 32.508768 3.466136
2003-09-02 07:30:31 51°21.82 3°10.02 18.897574 4.401784 32.505532 3.432426
2003-09-02 07:30:37 51°21.83 3°10.05 18.993903 4.405581 32.531289 3.432426
2003-09-02 07:30:41 51°21.84 3°10.07 18.950253 4.404104 32.520217 3.466136
2003-09-02 07:30:47 51°21.85 3°10.1 19.011142 4.401045 32.498319 3.398717
2003-09-02 07:30:51 51°21.85 3°10.12 18.973252 4.404632 32.526808 3.365007
2003-09-02 07:30:57 51°21.86 3°10.15 18.973252 4.404632 32.526808 3.365007
2003-09-02 07:31:01 51°21.87 3°10.17 18.967215 4.403366 32.518594 3.263879
2003-09-02 07:31:07 51°21.88 3°10.2 18.865832 4.401678 32.506897 3.263879
2003-09-02 07:31:11 51°21.88 3°10.22 19.002236 4.402311 32.512122 3.23017
2003-09-02 07:31:17 51°21.89 3°10.25 19.106372 4.399358 32.493885 3.162751
2003-09-02 07:31:21 51°21.9 3°10.27 18.950705 4.397881 32.483368 3.061623
2003-09-02 07:31:27 51°21.91 3°10.3 18.950705 4.397881 32.483368 3.061623
2003-09-02 07:31:31 51°21.91 3°10.31 18.972061 4.395982 32.471043 2.960494
2003-09-02 07:31:37 51°21.92 3°10.34 18.923014 4.395455 32.471716 2.893076
2003-09-02 07:31:41 51°21.93 3°10.36 19.07247 4.393029 32.453915 2.893076
2003-09-02 07:31:47 51°21.94 3°10.39 19.19038 4.390708 32.434753 2.758238
2003-09-02 07:31:51 51°21.94 3°10.41 19.228358 4.390814 32.437856 2.791947
2003-09-02 07:31:57 51°21.95 3°10.44 19.228358 4.390814 32.437856 2.791947
2003-09-02 07:32:01 51°21.96 3°10.46 19.09424 4.389442 32.420954 2.690819
2003-09-02 07:32:07 51°21.97 3°10.48 19.059799 4.388915 32.408237 2.65711
2003-09-02 07:32:11 51°21.98 3°10.5 19.025053 4.388915 32.396537 2.589691
2003-09-02 07:32:17 51°21.99 3°10.53 18.955551 4.389758 32.392919 2.555982
2003-09-02 07:32:21 51°21.99 3°10.55 19.02333 4.388914 32.374832 2.555982
2003-09-02 07:32:27 51°22 3°10.57 19.02333 4.388914 32.374832 2.555982
2003-09-02 07:32:31 51°22.01 3°10.59 19.154553 4.388914 32.368717 2.589691
2003-09-02 07:32:37 51°22.02 3°10.62 18.982326 4.38923 32.361878 2.6234
2003-09-02 07:32:41 51°22.03 3°10.63 18.979452 4.389863 32.365426 2.589691
2003-09-02 07:32:47 51°22.04 3°10.66 19.011347 4.390496 32.369531 2.6234
2003-09-02 07:32:51 51°22.04 3°10.68 19.177976 4.389441 32.363061 2.65711
2003-09-02 07:32:57 51°22.05 3°10.7 19.177976 4.389441 32.363061 2.65711
2003-09-02 07:33:01 51°22.06 3°10.72 18.977317 4.389547 32.363374 2.825657
2003-09-02 07:33:07 51°22.07 3°10.74 19.01541 4.390496 32.371753 2.859366
2003-09-02 07:33:11 51°22.07 3°10.76 19.053688 4.390707 32.374604 3.027913
2003-09-02 07:33:17 51°22.08 3°10.79 19.090755 4.389758 32.369002 3.061623
2003-09-02 07:33:21 51°22.09 3°10.8 19.094814 4.391129 32.381416 3.19646
2003-09-02 07:33:27 51°22.1 3°10.83 19.094814 4.391129 32.381416 3.19646
2003-09-02 07:33:31 51°22.11 3°10.84 19.053893 4.39134 32.38538 3.19646
2003-09-02 07:33:37 51°22.12 3°10.87 18.97666 4.390602 32.378737 3.19646
2003-09-02 07:33:41 51°22.12 3°10.88 19.09424 4.389336 32.368304 3.095332
2003-09-02 07:33:47 51°22.13 3°10.91 19.120019 4.393766 32.402041 3.027913
2003-09-02 07:33:51 51°22.14 3°10.92 19.072798 4.393028 32.394286 2.960494
2003-09-02 07:33:57 51°22.15 3°10.95 19.072798 4.393028 32.394286 2.960494
2003-09-02 07:34:01 51°22.16 3°10.97 19.139848 4.394188 32.40385 2.893076
2003-09-02 07:34:07 51°22.16 3°10.99 18.902465 4.395348 32.411188 2.893076
2003-09-02 07:34:11 51°22.17 3°11.01 18.97243 4.392817 32.394215 2.825657
2003-09-02 07:34:17 51°22.18 3°11.04 19.009213 4.391024 32.386664 2.960494
2003-09-02 07:34:21 51°22.19 3°11.05 19.150621 4.391762 32.397759 2.893076
2003-09-02 07:34:27 51°22.2 3°11.08 19.150621 4.391762 32.397759 2.893076
2003-09-02 07:34:31 51°22.2 3°11.1 18.918699 4.389336 32.386656 2.825657
2003-09-02 07:34:37 51°22.21 3°11.12 19.026859 4.387754 32.379171 2.791947
2003-09-02 07:34:41 51°22.22 3°11.14 18.999198 4.389125 32.391039 2.825657
2003-09-02 07:34:47 51°22.23 3°11.17 19.008433 4.387332 32.379587 2.724529
2003-09-02 07:34:51 51°22.23 3°11.19 19.049996 4.388071 32.386234 2.6234
2003-09-02 07:34:57 51°22.24 3°11.22 19.049996 4.388071 32.386234 2.6234
2003-09-02 07:35:01 51°22.25 3°11.24 18.993533 4.38902 32.389055 2.6234
2003-09-02 07:35:07 51°22.26 3°11.26 19.137308 4.388387 32.384391 2.589691
2003-09-02 07:35:11 51°22.26 3°11.28 19.007777 4.388914 32.383176 2.555982
2003-09-02 07:35:17 51°22.27 3°11.31 19.012866 4.390602 32.394312 2.589691
2003-09-02 07:35:21 51°22.27 3°11.33 19.0166 4.390707 32.389618 2.690819
2003-09-02 07:35:27 51°22.28 3°11.36 19.0166 4.390707 32.389618 2.690819
2003-09-02 07:35:31 51°22.29 3°11.38 19.045074 4.392922 32.399535 2.724529
2003-09-02 07:35:37 51°22.29 3°11.41 19.039413 4.39345 32.401658 2.724529
2003-09-02 07:35:39 51°22.3 3°11.42 19.031413 4.395137 32.406668 2.825657
2003-09-02 07:35:47 51°22.3 3°11.46 19.159713 4.395243 32.404756 2.791947
2003-09-02 07:35:51 51°22.31 3°11.48 18.98327 4.396931 32.410321 2.724529
2003-09-02 07:35:57 51°22.31 3°11.51 18.98327 4.396931 32.410321 2.724529
2003-09-02 07:36:01 51°22.32 3°11.53 19.082884 4.398196 32.418526 2.690819
2003-09-02 07:36:07 51°22.33 3°11.56 19.042161 4.397774 32.414494 2.724529
2003-09-02 07:36:11 51°22.33 3°11.58 18.938258 4.398196 32.41797 2.724529
2003-09-02 07:36:17 51°22.34 3°11.61 19.274369 4.398935 32.430174 2.724529
2003-09-02 07:36:21 51°22.34 3°11.63 19.074602 4.398618 32.428679 2.724529
2003-09-02 07:36:27 51°22.34 3°11.66 19.074602 4.398618 32.428679 2.724529
2003-09-02 07:36:31 51°22.34 3°11.68 19.134564 4.397669 32.426977 2.791947
2003-09-02 07:36:37 51°22.35 3°11.71 19.042941 4.398302 32.435534 2.791947
2003-09-02 07:36:41 51°22.35 3°11.74 19.032767 4.39672 32.425275 2.825657
2003-09-02 07:36:47 51°22.35 3°11.77 18.966312 4.397036 32.430668 2.926785
2003-09-02 07:36:51 51°22.35 3°11.79 18.92548 4.396404 32.428791 2.926785
2003-09-02 07:36:57 51°22.35 3°11.82 18.92548 4.396404 32.428791 2.926785
2003-09-02 07:37:01 51°22.36 3°11.84 18.987047 4.397036 32.435123 2.893076
2003-09-02 07:37:07 51°22.36 3°11.87 19.053688 4.397458 32.435817 2.859366
2003-09-02 07:37:11 51°22.36 3°11.89 18.950992 4.396298 32.429592 2.893076
2003-09-02 07:37:17 51°22.37 3°11.92 19.116986 4.397142 32.434879 2.960494
2003-09-02 07:37:21 51°22.37 3°11.94 18.980109 4.397458 32.438602 2.960494
2003-09-02 07:37:27 51°22.38 3°11.97 18.980109 4.397458 32.438602 2.960494
2003-09-02 07:37:31 51°22.39 3°11.99 19.146566 4.396509 32.435788 2.859366
2003-09-02 07:37:37 51°22.4 3°12.02 18.979205 4.399252 32.461752 2.960494
2003-09-02 07:37:41 51°22.4 3°12.04 19.012701 4.398302 32.457267 2.926785
2003-09-02 07:37:47 51°22.41 3°12.07 19.108257 4.397037 32.449613 2.859366
2003-09-02 07:37:51 51°22.42 3°12.09 19.078579 4.399041 32.465589 2.893076
2003-09-02 07:37:57 51°22.42 3°12.12 19.078579 4.399041 32.465589 2.893076
2003-09-02 07:38:01 51°22.43 3°12.14 18.901355 4.398408 32.462041 2.859366
2003-09-02 07:38:07 51°22.43 3°12.17 19.03929 4.396826 32.451218 2.758238
2003-09-02 07:38:11 51°22.44 3°12.19 18.964505 4.396826 32.452334 2.791947
2003-09-02 07:38:17 51°22.44 3°12.22 18.895354 4.398197 32.460858 2.724529
2003-09-02 07:38:21 51°22.45 3°12.24 19.022632 4.397881 32.461595 2.758238
2003-09-02 07:38:27 51°22.45 3°12.28 19.022632 4.397881 32.461595 2.758238
2003-09-02 07:38:31 51°22.46 3°12.3 19.032397 4.396931 32.455993 2.724529
2003-09-02 07:38:37 51°22.46 3°12.33 18.989839 4.395982 32.452064 2.65711
2003-09-02 07:38:41 51°22.46 3°12.35 18.955017 4.395666 32.449453 2.690819
2003-09-02 07:38:47 51°22.47 3°12.38 18.956455 4.396193 32.454921 2.65711
2003-09-02 07:38:51 51°22.47 3°12.41 19.052949 4.395033 32.445903 2.6234
2003-09-02 07:38:57 51°22.47 3°12.44 19.052949 4.395033 32.445903 2.6234
2003-09-02 07:39:01 51°22.48 3°12.46 18.878785 4.394927 32.448938 2.6234
2003-09-02 07:39:07 51°22.48 3°12.49 18.987909 4.393872 32.440232 2.589691
2003-09-02 07:39:11 51°22.48 3°12.52 18.875537 4.393661 32.437934 2.555982
2003-09-02 07:39:17 51°22.48 3°12.55 18.87677 4.3944 32.447932 2.589691
2003-09-02 07:39:21 51°22.49 3°12.57 18.942448 4.393662 32.440722 2.555982
2003-09-02 07:39:27 51°22.49 3°12.6 18.942448 4.393662 32.440722 2.555982
2003-09-02 07:39:31 51°22.49 3°12.63 18.90748 4.393978 32.447798 2.589691
2003-09-02 07:39:37 51°22.5 3°12.66 18.940394 4.393978 32.44724 2.522272
2003-09-02 07:39:41 51°22.5 3°12.68 18.972595 4.392712 32.437907 2.6234
2003-09-02 07:39:47 51°22.5 3°12.71 18.876359 4.39229 32.437772 2.589691
2003-09-02 07:39:51 51°22.5 3°12.74 19.041751 4.392396 32.440874 2.555982
2003-09-02 07:39:57 51°22.5 3°12.77 19.041751 4.392396 32.440874 2.555982
2003-09-02 07:40:01 51°22.5 3°12.79 18.93834 4.392396 32.442549 2.589691
2003-09-02 07:40:07 51°22.51 3°12.82 18.940189 4.393662 32.44965 2.555982
2003-09-02 07:40:11 51°22.51 3°12.85 18.935752 4.391341 32.43384 2.522272
2003-09-02 07:40:17 51°22.51 3°12.88 18.836585 4.390392 32.428792 2.522272
2003-09-02 07:40:21 51°22.51 3°12.9 19.038305 4.391447 32.435269 2.555982
2003-09-02 07:40:27 51°22.52 3°12.93 19.038305 4.391447 32.435269 2.555982
2003-09-02 07:40:31 51°22.52 3°12.96 19.071199 4.391868 32.438752 2.555982
2003-09-02 07:40:37 51°22.52 3°12.99 19.004329 4.390075 32.426179 2.555982
2003-09-02 07:40:41 51°22.52 3°13.01 18.976331 4.390603 32.430534 2.555982
2003-09-02 07:40:47 51°22.53 3°13.04 18.984338 4.390497 32.430779 2.555982
2003-09-02 07:40:51 51°22.53 3°13.06 19.096248 4.390181 32.430956 2.522272
2003-09-02 07:40:57 51°22.54 3°13.1 19.096248 4.390181 32.430956 2.522272
2003-09-02 07:41:01 51°22.54 3°13.12 18.936368 4.390814 32.432834 2.522272
2003-09-02 07:41:07 51°22.54 3°13.15 19.107848 4.391763 32.440114 2.488563
2003-09-02 07:41:11 51°22.55 3°13.17 18.945036 4.391974 32.44353 2.488563
2003-09-02 07:41:17 51°22.55 3°13.2 18.947747 4.390814 32.434508 2.454853
2003-09-02 07:41:21 51°22.56 3°13.22 18.985939 4.392607 32.444849 2.454853
2003-09-02 07:41:27 51°22.56 3°13.26 18.985939 4.392607 32.444849 2.454853
2003-09-02 07:41:31 51°22.56 3°13.28 18.954319 4.392818 32.441568 2.353725
2003-09-02 07:41:37 51°22.57 3°13.31 19.056764 4.395033 32.453714 2.286306
2003-09-02 07:41:41 51°22.57 3°13.33 18.989182 4.39651 32.463671 2.353725
2003-09-02 07:41:47 51°22.57 3°13.37 19.121821 4.397564 32.466237 2.286306
2003-09-02 07:41:51 51°22.58 3°13.39 19.021812 4.39883 32.473335 2.286306
2003-09-02 07:41:57 51°22.58 3°13.42 19.021812 4.39883 32.473335 2.286306
2003-09-02 07:42:01 51°22.58 3°13.44 19.087558 4.400412 32.481367 2.286306
2003-09-02 07:42:07 51°22.59 3°13.47 19.051965 4.40094 32.483486 2.286306
2003-09-02 07:42:11 51°22.59 3°13.49 19.046222 4.401995 32.491073 2.353725
2003-09-02 07:42:17 51°22.6 3°13.53 18.942325 4.4021 32.493619 2.320016
2003-09-02 07:42:21 51°22.6 3°13.55 19.074356 4.404421 32.511093 2.353725
2003-09-02 07:42:27 51°22.6 3°13.58 19.074356 4.404421 32.511093 2.353725
2003-09-02 07:42:31 51°22.61 3°13.6 19.0166 4.406108 32.522785 2.353725
2003-09-02 07:42:37 51°22.61 3°13.63 19.007571 4.407058 32.527265 2.320016
2003-09-02 07:42:41 51°22.62 3°13.65 18.940353 4.406003 32.522473 2.353725
2003-09-02 07:42:47 51°22.62 3°13.69 18.97395 4.405898 32.524956 2.320016
2003-09-02 07:42:51 51°22.62 3°13.71 19.073782 4.406741 32.531361 2.320016
2003-09-02 07:42:57 51°22.63 3°13.74 19.073782 4.406741 32.531361 2.320016
2003-09-02 07:43:01 51°22.63 3°13.76 19.00396 4.404948 32.518239 2.320016
2003-09-02 07:43:07 51°22.64 3°13.79 18.971281 4.401784 32.496034 2.353725
2003-09-02 07:43:11 51°22.64 3°13.81 18.938175 4.403471 32.509963 2.320016
2003-09-02 07:43:17 51°22.64 3°13.85 19.003262 4.402944 32.506169 2.320016
2003-09-02 07:43:21 51°22.65 3°13.87 18.906575 4.402522 32.503804 2.286306
2003-09-02 07:43:27 51°22.65 3°13.9 18.906575 4.402522 32.503804 2.286306
2003-09-02 07:43:31 51°22.66 3°13.92 19.114569 4.402628 32.505792 2.286306
2003-09-02 07:43:37 51°22.66 3°13.95 19.015533 4.401889 32.498021 2.320016
2003-09-02 07:43:41 51°22.66 3°13.97 19.016149 4.402206 32.503985 2.286306
2003-09-02 07:43:47 51°22.67 3°14 18.955059 4.401573 32.497085 2.218888
2003-09-02 07:43:51 51°22.67 3°14.03 18.993328 4.402311 32.50318 2.252597
2003-09-02 07:43:57 51°22.68 3°14.06 18.993328 4.402311 32.50318 2.252597
2003-09-02 07:44:01 51°22.68 3°14.08 19.064638 4.399041 32.478983 2.185178
2003-09-02 07:44:07 51°22.68 3°14.11 18.96857 4.400518 32.486146 2.151469
2003-09-02 07:44:11 51°22.69 3°14.13 19.073249 4.401362 32.490876 2.185178
2003-09-02 07:44:17 51°22.69 3°14.16 19.011101 4.400518 32.483913 2.117759
2003-09-02 07:44:21 51°22.7 3°14.18 19.016149 4.399674 32.473042 2.08405
2003-09-02 07:44:27 51°22.7 3°14.21 19.016149 4.399674 32.473042 2.08405
2003-09-02 07:44:31 51°22.71 3°14.23 19.087886 4.399041 32.465031 2.016631
2003-09-02 07:44:37 51°22.71 3°14.26 19.023084 4.399463 32.462377 2.016631
2003-09-02 07:44:41 51°22.71 3°14.28 18.99263 4.399041 32.455551 1.915503
2003-09-02 07:44:47 51°22.72 3°14.32 18.960357 4.39788 32.445425 1.949212
2003-09-02 07:44:51 51°22.72 3°14.34 19.03129 4.39788 32.443196 1.881794
2003-09-02 07:44:57 51°22.73 3°14.37 19.03129 4.39788 32.443196 1.881794
2003-09-02 07:45:01 51°22.73 3°14.39 19.069764 4.396825 32.428928 1.915503
2003-09-02 07:45:07 51°22.74 3°14.42 19.039536 4.396192 32.418701 1.848084
2003-09-02 07:45:11 51°22.74 3°14.44 19.142921 4.394927 32.410493 1.814375
2003-09-02 07:45:17 51°22.74 3°14.47 19.078907 4.394505 32.40312 1.780665
2003-09-02 07:45:21 51°22.75 3°14.49 19.014794 4.39577 32.409659 1.780665
2003-09-02 07:45:27 51°22.75 3°14.51 19.014794 4.39577 32.409659 1.780665
2003-09-02 07:45:31 51°22.76 3°14.53 19.118298 4.394821 32.400167 1.780665
2003-09-02 07:45:37 51°22.76 3°14.55 19.121125 4.396298 32.410668 1.713247
2003-09-02 07:45:41 51°22.77 3°14.57 19.123624 4.395981 32.40528 1.746956
2003-09-02 07:45:47 51°22.77 3°14.59 19.058978 4.39788 32.417587 1.746956
2003-09-02 07:45:51 51°22.77 3°14.6 19.026202 4.398724 32.418978 1.746956
2003-09-02 07:45:57 51°22.78 3°14.61 19.026202 4.398724 32.418978 1.746956
2003-09-02 07:46:01 51°22.78 3°14.62 19.128008 4.400517 32.432639 1.713247
2003-09-02 07:46:07 51°22.79 3°14.64 19.164177 4.401572 32.440217 1.612118
2003-09-02 07:46:11 51°22.79 3°14.65 19.065171 4.403998 32.456309 1.645828
2003-09-02 07:46:17 51°22.8 3°14.66 19.13358 4.403892 32.45544 1.679537
2003-09-02 07:46:21 51°22.8 3°14.67 19.137308 4.405897 32.471395 1.645828
2003-09-02 07:46:27 51°22.8 3°14.68 19.137308 4.405897 32.471395 1.645828
2003-09-02 07:46:31 51°22.81 3°14.69 19.206016 4.407057 32.478727 1.645828
2003-09-02 07:46:37 51°22.81 3°14.7 19.07452 4.409589 32.500143 1.645828
2003-09-02 07:46:41 51°22.82 3°14.7 19.007243 4.41096 32.506982 1.645828
2003-09-02 07:46:47 51°22.82 3°14.71 19.009747 4.411487 32.51077 1.645828
2003-09-02 07:46:51 51°22.82 3°14.72 19.009993 4.412331 32.51605 1.645828
2003-09-02 07:46:57 51°22.82 3°14.73 19.009993 4.412331 32.51605 1.645828
2003-09-02 07:47:01 51°22.82 3°14.73 19.044869 4.414546 32.532628 1.679537
2003-09-02 07:47:07 51°22.82 3°14.74 19.24468 4.41539 32.537349 1.645828
2003-09-02 07:47:11 51°22.83 3°14.74 19.044335 4.414968 32.534989 1.645828
2003-09-02 07:47:17 51°22.83 3°14.75 19.077923 4.416656 32.546105 1.645828
2003-09-02 07:47:21 51°22.83 3°14.76 19.078374 4.417605 32.55281 1.645828
2003-09-02 07:47:27 51°22.83 3°14.76 19.078374 4.417605 32.55281 1.645828
2003-09-02 07:47:31 51°22.83 3°14.77 19.076406 4.419188 32.564172 1.612118
2003-09-02 07:47:37 51°22.83 3°14.77 19.075873 4.419399 32.566468 1.645828
2003-09-02 07:47:41 51°22.83 3°14.78 19.075217 4.420032 32.570566 1.645828
2003-09-02 07:47:47 51°22.83 3°14.78 19.074889 4.421087 32.579257 1.645828
2003-09-02 07:47:51 51°22.83 3°14.79 19.17556 4.42193 32.583418 1.612118
2003-09-02 07:47:57 51°22.83 3°14.79 19.17556 4.42193 32.583418 1.612118
2003-09-02 07:48:01 51°22.83 3°14.8 19.075955 4.422985 32.593785 1.612118
2003-09-02 07:48:07 51°22.83 3°14.8 19.040603 4.424884 32.612225 1.612118
2003-09-02 07:48:11 51°22.83 3°14.8 19.074971 4.423196 32.596082 1.645828
2003-09-02 07:48:17 51°22.83 3°14.81 19.074725 4.423618 32.600676 1.612118
2003-09-02 07:48:21 51°22.83 3°14.81 19.007612 4.423618 32.600676 1.612118
2003-09-02 07:48:27 51°22.84 3°14.81 19.007612 4.423618 32.600676 1.612118
2003-09-02 07:48:31 51°22.84 3°14.82 19.074315 4.425306 32.614025 1.612118
2003-09-02 07:48:37 51°22.84 3°14.82 19.109774 4.426045 32.62011 1.578409
2003-09-02 07:48:41 51°22.84 3°14.82 19.008187 4.425728 32.617502 1.578409
2003-09-02 07:48:47 51°22.84 3°14.82 19.007612 4.425728 32.619179 1.578409
2003-09-02 07:48:51 51°22.84 3°14.82 19.209535 4.425939 32.616445 1.612118
2003-09-02 07:48:57 51°22.84 3°14.83 19.209535 4.425939 32.616445 1.612118
2003-09-02 07:49:01 51°22.84 3°14.83 19.108011 4.425201 32.615392 1.578409
2003-09-02 07:49:07 51°22.84 3°14.83 19.108995 4.424884 32.611666 1.578409
2003-09-02 07:49:11 51°22.84 3°14.83 19.041833 4.426255 32.62073 1.578409
2003-09-02 07:49:17 51°22.85 3°14.83 19.074971 4.42615 32.62042 1.578409
2003-09-02 07:49:21 51°22.85 3°14.83 19.074438 4.425412 32.616012 1.578409
2003-09-02 07:49:27 51°22.85 3°14.83 19.074438 4.425412 32.616012 1.578409
2003-09-02 07:49:31 51°22.85 3°14.83 19.006135 4.425728 32.618061 1.578409
2003-09-02 07:49:37 51°22.85 3°14.83 19.075258 4.426572 32.623897 1.578409
2003-09-02 07:49:41 51°22.85 3°14.83 19.109897 4.426783 32.627314 1.578409
2003-09-02 07:49:47 51°22.85 3°14.83 19.109692 4.427838 32.634888 1.578409
2003-09-02 07:49:51 51°22.85 3°14.83 18.973621 4.427943 32.634639 1.578409
2003-09-02 07:49:57 51°22.85 3°14.84 18.973621 4.427943 32.634639 1.578409
2003-09-02 07:50:01 51°22.85 3°14.84 19.041464 4.428049 32.638305 1.578409
2003-09-02 07:50:07 51°22.85 3°14.84 19.075422 4.428682 32.645761 1.578409
2003-09-02 07:50:11 51°22.85 3°14.84 19.006997 4.426994 32.635766 1.5447
2003-09-02 07:50:17 51°22.86 3°14.84 18.975387 4.427099 32.629922 1.5447
2003-09-02 07:50:21 51°22.86 3°14.84 19.11047 4.427943 32.635758 1.578409
2003-09-02 07:50:27 51°22.86 3°14.84 19.11047 4.427943 32.635758 1.578409
2003-09-02 07:50:31 51°22.86 3°14.84 19.006053 4.42615 32.620979 1.578409
2003-09-02 07:50:37 51°22.86 3°14.84 18.971732 4.428154 32.636378 1.5447
2003-09-02 07:50:41 51°22.86 3°14.84 18.970993 4.427732 32.635138 1.5447
2003-09-02 07:50:47 51°22.86 3°14.84 18.970008 4.430053 32.654265 1.578409
2003-09-02 07:50:51 51°22.86 3°14.84 18.969351 4.428471 32.641783 1.5447
2003-09-02 07:50:57 51°22.86 3°14.84 18.969351 4.428471 32.641783 1.5447
2003-09-02 07:51:01 51°22.86 3°14.84 18.96894 4.428365 32.640354 1.578409
2003-09-02 07:51:07 51°22.86 3°14.84 18.969638 4.429104 32.643642 2.960494
2003-09-02 07:51:11 51°22.86 3°14.84 18.969186 4.429526 32.648798 2.286306
2003-09-02 07:51:17 51°22.87 3°14.84 18.969638 4.427838 32.637686 1.780665
2003-09-02 07:51:21 51°22.87 3°14.84 18.970336 4.429737 32.648299 1.645828
2003-09-02 07:51:27 51°22.87 3°14.84 18.970336 4.429737 32.648299 1.645828
2003-09-02 07:51:31 51°22.87 3°14.84 18.970541 4.430581 32.655813 1.612118
2003-09-02 07:51:37 51°22.87 3°14.84 18.970788 4.430792 32.660351 1.612118
2003-09-02 07:51:41 51°22.87 3°14.84 18.971609 4.429737 32.649418 1.612118
2003-09-02 07:51:47 51°22.87 3°14.84 18.971363 4.429315 32.647619 1.612118
2003-09-02 07:51:51 51°22.87 3°14.84 18.972266 4.429209 32.645071 1.578409
2003-09-02 07:51:57 51°22.87 3°14.84 18.972266 4.429209 32.645071 1.578409